ruta-valle-del-lago-somiedo.gpx<?xml version="1.0" encoding="UTF-8" standalone="no" ?>
<gpx xmlns="http://www.topografix.com/GPX/1/1" xmlns:gpxtpx="http://www.garmin.com/xmlschemas/TrackPointExtension/v1" creator="Mapas de España v.3.0.0" version="1.1" xmlns:xsi="http://www.w3.org/2001/XMLSchema-instance" xsi:schemaLocation="http://www.topografix.com/GPX/1/1 http://www.topografix.com/GPX/1/1/gpx.xsd">
<!-- owner: d59e49435998d5 -->
<metadata>
<name><![CDATA[2023-09-08 11:27:39]]></name>
<link href="https://www.oruxmaps.com">
<text>Mapas de España</text>
</link>
<time>2023-09-08T09:27:39.926Z</time><bounds maxlat="43.0702929" maxlon="-6.1363417" minlat="43.0417582" minlon="-6.1941688"/>
</metadata>
<wpt lat="43.0702929" lon="-6.1941688">
<ele>1245.66</ele>
<time>2023-09-08T09:27:40.196Z</time>
<name><![CDATA[]]></name>
<sym>Waypoint</sym>
<type>Comienzo</type>
<extensions>
<om:oruxmapsextensions xmlns:om="http://www.oruxmaps.com/oruxmapsextensions/1/0">
<om:ext type="ICON" subtype="0">38</om:ext>
</om:oruxmapsextensions>
</extensions>
</wpt>
<wpt lat="43.0702692" lon="-6.1940389">
<ele>1243.31</ele>
<time>2023-09-08T14:18:58.256Z</time>
<name><![CDATA[]]></name>
<desc><![CDATA[<p><br /><h3>Nombre: Segmento: 1</h3><br />Tipo: Indefinido<br/>Hora Inicio: 11:27 8 sept. 2023<br/>Hora Fin: 16:18 8 sept. 2023<br/>Distancia recorrida: 12,9km (04:51)<br/>Tiempo en movimiento: 03:52<br/>Velocidad media: 2,65 km/h<br/>Vel. en Mov.: 3,31 km/h<br/>Velocidad Máxima: 5,49 km/h<br/>Altura Mínima: 1244 m<br/>Altura Máxima: 1580 m<br/>Velocidad Ascenso: 254,8 m/h<br/>Velocidad Descenso: 207,1 m/h<br/>Ganancia Altitud: 348 m<br/>Pérdida Altitud: 349 m<br/>Tiempo Ascenso: 01:22<br/>Tiempo Descenso: 01:41<br/></p>]]></desc>
<sym>Waypoint</sym>
<type>Final</type>
<extensions>
<om:oruxmapsextensions xmlns:om="http://www.oruxmaps.com/oruxmapsextensions/1/0">
<om:ext type="ICON" subtype="0">15</om:ext>
</om:oruxmapsextensions>
</extensions>
</wpt>
<trk>
<name><![CDATA[2023-09-08 11:27:39]]></name>
<desc><![CDATA[<p>Tipo: Indefinido<br/>Hora Inicio: 11:27 8 sept. 2023<br/>Hora Fin: 16:18 8 sept. 2023<br/>Distancia recorrida: 12,9 km (04:51)<br/>Tiempo en movimiento: 03:52<br/>Velocidad media: 2,65 km/h<br/>Vel. en Mov.: 3,31 km/h<br/>Velocidad Máxima: 5,49 km/h<br/>Altura Mínima: 1244 m<br/>Altura Máxima: 1580 m<br/>Velocidad Ascenso: 254,8 m/h<br/>Velocidad Descenso: 207,1 m/h<br/>Ganancia Altitud: 348 m<br/>Pérdida Altitud: 349 m<br/>Tiempo Ascenso: 01:22<br/>Tiempo Descenso: 01:41<br/></p><hr align="center" width="480" style="height: 2px; width: 517px"/>]]></desc>
<type>Indefinido</type>
<extensions>
<om:oruxmapsextensions xmlns:om="http://www.oruxmaps.com/oruxmapsextensions/1/0">
<om:ext type="TYPE" subtype="0">0</om:ext>
<om:ext type="DIFFICULTY">0</om:ext>
</om:oruxmapsextensions>
</extensions>
<trkseg>
<trkpt lat="43.0702929" lon="-6.1941688">
<ele>1245.66</ele>
<time>2023-09-08T09:27:41.000Z</time>
</trkpt>
<trkpt lat="43.0702775" lon="-6.1939139">
<ele>1243.29</ele>
<time>2023-09-08T09:28:32.000Z</time>
</trkpt>
<trkpt lat="43.0702020" lon="-6.1936903">
<ele>1240.31</ele>
<time>2023-09-08T09:28:47.000Z</time>
</trkpt>
<trkpt lat="43.0701420" lon="-6.1934556">
<ele>1241.28</ele>
<time>2023-09-08T09:29:50.000Z</time>
</trkpt>
<trkpt lat="43.0700626" lon="-6.1932296">
<ele>1242.28</ele>
<time>2023-09-08T09:30:10.000Z</time>
</trkpt>
<trkpt lat="43.0700199" lon="-6.1929884">
<ele>1244.19</ele>
<time>2023-09-08T09:30:27.000Z</time>
</trkpt>
<trkpt lat="43.0699182" lon="-6.1927768">
<ele>1247.98</ele>
<time>2023-09-08T09:30:44.000Z</time>
</trkpt>
<trkpt lat="43.0698101" lon="-6.1925755">
<ele>1249.28</ele>
<time>2023-09-08T09:31:00.000Z</time>
</trkpt>
<trkpt lat="43.0696978" lon="-6.1923816">
<ele>1249.29</ele>
<time>2023-09-08T09:31:17.000Z</time>
</trkpt>
<trkpt lat="43.0695879" lon="-6.1921710">
<ele>1249.29</ele>
<time>2023-09-08T09:31:34.000Z</time>
</trkpt>
<trkpt lat="43.0694650" lon="-6.1919876">
<ele>1250.29</ele>
<time>2023-09-08T09:31:51.000Z</time>
</trkpt>
<trkpt lat="43.0693527" lon="-6.1917887">
<ele>1250.31</ele>
<time>2023-09-08T09:32:08.000Z</time>
</trkpt>
<trkpt lat="43.0692696" lon="-6.1915571">
<ele>1252.28</ele>
<time>2023-09-08T09:32:24.000Z</time>
</trkpt>
<trkpt lat="43.0692102" lon="-6.1913069">
<ele>1250.31</ele>
<time>2023-09-08T09:32:40.000Z</time>
</trkpt>
<trkpt lat="43.0691285" lon="-6.1910742">
<ele>1250.29</ele>
<time>2023-09-08T09:33:14.000Z</time>
</trkpt>
<trkpt lat="43.0690385" lon="-6.1908602">
<ele>1252.35</ele>
<time>2023-09-08T09:33:38.000Z</time>
</trkpt>
<trkpt lat="43.0689192" lon="-6.1906694">
<ele>1252.29</ele>
<time>2023-09-08T09:33:53.000Z</time>
</trkpt>
<trkpt lat="43.0687904" lon="-6.1904941">
<ele>1253.32</ele>
<time>2023-09-08T09:34:17.000Z</time>
</trkpt>
<trkpt lat="43.0687404" lon="-6.1902484">
<ele>1253.97</ele>
<time>2023-09-08T09:34:42.000Z</time>
</trkpt>
<trkpt lat="43.0686789" lon="-6.1900129">
<ele>1256.27</ele>
<time>2023-09-08T09:35:30.000Z</time>
</trkpt>
<trkpt lat="43.0686261" lon="-6.1897724">
<ele>1256.29</ele>
<time>2023-09-08T09:35:46.000Z</time>
</trkpt>
<trkpt lat="43.0685754" lon="-6.1895317">
<ele>1257.29</ele>
<time>2023-09-08T09:36:09.000Z</time>
</trkpt>
<trkpt lat="43.0684574" lon="-6.1893311">
<ele>1260.28</ele>
<time>2023-09-08T09:36:28.000Z</time>
</trkpt>
<trkpt lat="43.0683336" lon="-6.1891494">
<ele>1261.29</ele>
<time>2023-09-08T09:36:46.000Z</time>
</trkpt>
<trkpt lat="43.0682290" lon="-6.1889344">
<ele>1263.97</ele>
<time>2023-09-08T09:37:03.000Z</time>
</trkpt>
<trkpt lat="43.0681004" lon="-6.1887467">
<ele>1264.29</ele>
<time>2023-09-08T09:37:20.000Z</time>
</trkpt>
<trkpt lat="43.0680287" lon="-6.1885065">
<ele>1263.29</ele>
<time>2023-09-08T09:37:36.000Z</time>
</trkpt>
<trkpt lat="43.0680069" lon="-6.1882499">
<ele>1262.30</ele>
<time>2023-09-08T09:37:59.000Z</time>
</trkpt>
<trkpt lat="43.0680024" lon="-6.1879937">
<ele>1265.08</ele>
<time>2023-09-08T09:38:15.000Z</time>
</trkpt>
<trkpt lat="43.0679096" lon="-6.1877793">
<ele>1262.62</ele>
<time>2023-09-08T09:38:32.000Z</time>
</trkpt>
<trkpt lat="43.0679038" lon="-6.1875254">
<ele>1264.29</ele>
<time>2023-09-08T09:39:21.000Z</time>
</trkpt>
<trkpt lat="43.0679577" lon="-6.1872892">
<ele>1265.29</ele>
<time>2023-09-08T09:39:38.000Z</time>
</trkpt>
<trkpt lat="43.0679709" lon="-6.1870337">
<ele>1268.30</ele>
<time>2023-09-08T09:40:08.000Z</time>
</trkpt>
<trkpt lat="43.0679842" lon="-6.1867802">
<ele>1273.18</ele>
<time>2023-09-08T09:40:30.000Z</time>
</trkpt>
<trkpt lat="43.0680148" lon="-6.1865259">
<ele>1269.62</ele>
<time>2023-09-08T09:40:48.000Z</time>
</trkpt>
<trkpt lat="43.0680802" lon="-6.1862825">
<ele>1268.30</ele>
<time>2023-09-08T09:41:17.000Z</time>
</trkpt>
<trkpt lat="43.0680367" lon="-6.1860387">
<ele>1272.99</ele>
<time>2023-09-08T09:41:35.000Z</time>
</trkpt>
<trkpt lat="43.0679480" lon="-6.1858106">
<ele>1278.29</ele>
<time>2023-09-08T09:42:08.000Z</time>
</trkpt>
<trkpt lat="43.0679173" lon="-6.1855591">
<ele>1279.32</ele>
<time>2023-09-08T09:42:34.000Z</time>
</trkpt>
<trkpt lat="43.0678946" lon="-6.1853112">
<ele>1278.30</ele>
<time>2023-09-08T09:42:50.000Z</time>
</trkpt>
<trkpt lat="43.0678632" lon="-6.1850639">
<ele>1279.00</ele>
<time>2023-09-08T09:43:04.000Z</time>
</trkpt>
<trkpt lat="43.0678171" lon="-6.1848096">
<ele>1279.30</ele>
<time>2023-09-08T09:43:19.000Z</time>
</trkpt>
<trkpt lat="43.0677337" lon="-6.1845857">
<ele>1277.39</ele>
<time>2023-09-08T09:43:35.000Z</time>
</trkpt>
<trkpt lat="43.0676190" lon="-6.1843930">
<ele>1277.27</ele>
<time>2023-09-08T09:43:50.000Z</time>
</trkpt>
<trkpt lat="43.0675767" lon="-6.1841412">
<ele>1278.30</ele>
<time>2023-09-08T09:44:07.000Z</time>
</trkpt>
<trkpt lat="43.0675705" lon="-6.1838916">
<ele>1277.59</ele>
<time>2023-09-08T09:44:39.000Z</time>
</trkpt>
<trkpt lat="43.0675326" lon="-6.1836458">
<ele>1277.30</ele>
<time>2023-09-08T09:44:54.000Z</time>
</trkpt>
<trkpt lat="43.0674303" lon="-6.1834309">
<ele>1276.30</ele>
<time>2023-09-08T09:45:10.000Z</time>
</trkpt>
<trkpt lat="43.0673953" lon="-6.1831833">
<ele>1276.30</ele>
<time>2023-09-08T09:45:25.000Z</time>
</trkpt>
<trkpt lat="43.0674075" lon="-6.1829250">
<ele>1276.30</ele>
<time>2023-09-08T09:45:40.000Z</time>
</trkpt>
<trkpt lat="43.0673521" lon="-6.1826774">
<ele>1276.30</ele>
<time>2023-09-08T09:45:55.000Z</time>
</trkpt>
<trkpt lat="43.0672630" lon="-6.1824514">
<ele>1275.30</ele>
<time>2023-09-08T09:46:10.000Z</time>
</trkpt>
<trkpt lat="43.0671838" lon="-6.1822216">
<ele>1275.60</ele>
<time>2023-09-08T09:46:25.000Z</time>
</trkpt>
<trkpt lat="43.0670608" lon="-6.1820304">
<ele>1276.30</ele>
<time>2023-09-08T09:46:39.000Z</time>
</trkpt>
<trkpt lat="43.0669404" lon="-6.1818255">
<ele>1275.31</ele>
<time>2023-09-08T09:46:54.000Z</time>
</trkpt>
<trkpt lat="43.0668927" lon="-6.1815759">
<ele>1278.00</ele>
<time>2023-09-08T09:47:12.000Z</time>
</trkpt>
<trkpt lat="43.0668682" lon="-6.1813167">
<ele>1277.30</ele>
<time>2023-09-08T09:47:28.000Z</time>
</trkpt>
<trkpt lat="43.0668411" lon="-6.1810567">
<ele>1277.09</ele>
<time>2023-09-08T09:47:42.000Z</time>
</trkpt>
<trkpt lat="43.0667833" lon="-6.1808094">
<ele>1278.00</ele>
<time>2023-09-08T09:48:03.000Z</time>
</trkpt>
<trkpt lat="43.0666848" lon="-6.1805804">
<ele>1278.00</ele>
<time>2023-09-08T09:48:18.000Z</time>
</trkpt>
<trkpt lat="43.0665755" lon="-6.1803769">
<ele>1277.40</ele>
<time>2023-09-08T09:48:33.000Z</time>
</trkpt>
<trkpt lat="43.0664539" lon="-6.1801761">
<ele>1277.31</ele>
<time>2023-09-08T09:48:50.000Z</time>
</trkpt>
<trkpt lat="43.0663704" lon="-6.1799486">
<ele>1279.01</ele>
<time>2023-09-08T09:49:05.000Z</time>
</trkpt>
<trkpt lat="43.0662882" lon="-6.1797124">
<ele>1279.31</ele>
<time>2023-09-08T09:49:19.000Z</time>
</trkpt>
<trkpt lat="43.0662604" lon="-6.1794611">
<ele>1278.39</ele>
<time>2023-09-08T09:49:34.000Z</time>
</trkpt>
<trkpt lat="43.0661779" lon="-6.1792389">
<ele>1278.31</ele>
<time>2023-09-08T09:49:48.000Z</time>
</trkpt>
<trkpt lat="43.0660235" lon="-6.1790803">
<ele>1279.29</ele>
<time>2023-09-08T09:50:03.000Z</time>
</trkpt>
<trkpt lat="43.0658979" lon="-6.1789040">
<ele>1278.25</ele>
<time>2023-09-08T09:50:17.000Z</time>
</trkpt>
<trkpt lat="43.0657912" lon="-6.1786825">
<ele>1278.40</ele>
<time>2023-09-08T09:50:34.000Z</time>
</trkpt>
<trkpt lat="43.0657036" lon="-6.1784602">
<ele>1278.31</ele>
<time>2023-09-08T09:50:49.000Z</time>
</trkpt>
<trkpt lat="43.0656134" lon="-6.1782406">
<ele>1279.31</ele>
<time>2023-09-08T09:51:05.000Z</time>
</trkpt>
<trkpt lat="43.0654902" lon="-6.1780365">
<ele>1281.31</ele>
<time>2023-09-08T09:51:21.000Z</time>
</trkpt>
<trkpt lat="43.0653653" lon="-6.1778324">
<ele>1282.31</ele>
<time>2023-09-08T09:51:36.000Z</time>
</trkpt>
<trkpt lat="43.0653052" lon="-6.1775953">
<ele>1281.31</ele>
<time>2023-09-08T09:51:51.000Z</time>
</trkpt>
<trkpt lat="43.0652765" lon="-6.1773364">
<ele>1281.30</ele>
<time>2023-09-08T09:52:06.000Z</time>
</trkpt>
<trkpt lat="43.0652298" lon="-6.1770964">
<ele>1282.31</ele>
<time>2023-09-08T09:52:20.000Z</time>
</trkpt>
<trkpt lat="43.0651922" lon="-6.1768532">
<ele>1282.38</ele>
<time>2023-09-08T09:52:36.000Z</time>
</trkpt>
<trkpt lat="43.0651187" lon="-6.1766085">
<ele>1285.00</ele>
<time>2023-09-08T09:53:15.000Z</time>
</trkpt>
<trkpt lat="43.0650535" lon="-6.1763726">
<ele>1283.38</ele>
<time>2023-09-08T09:53:31.000Z</time>
</trkpt>
<trkpt lat="43.0650321" lon="-6.1761191">
<ele>1282.31</ele>
<time>2023-09-08T09:53:50.000Z</time>
</trkpt>
<trkpt lat="43.0650261" lon="-6.1758695">
<ele>1286.22</ele>
<time>2023-09-08T09:54:06.000Z</time>
</trkpt>
<trkpt lat="43.0650116" lon="-6.1756164">
<ele>1285.31</ele>
<time>2023-09-08T09:54:23.000Z</time>
</trkpt>
<trkpt lat="43.0649351" lon="-6.1753793">
<ele>1286.32</ele>
<time>2023-09-08T09:54:40.000Z</time>
</trkpt>
<trkpt lat="43.0648636" lon="-6.1751409">
<ele>1289.22</ele>
<time>2023-09-08T09:54:56.000Z</time>
</trkpt>
<trkpt lat="43.0647538" lon="-6.1749308">
<ele>1290.34</ele>
<time>2023-09-08T09:55:11.000Z</time>
</trkpt>
<trkpt lat="43.0646206" lon="-6.1747421">
<ele>1293.23</ele>
<time>2023-09-08T09:55:38.000Z</time>
</trkpt>
<trkpt lat="43.0644908" lon="-6.1745613">
<ele>1293.02</ele>
<time>2023-09-08T09:55:54.000Z</time>
</trkpt>
<trkpt lat="43.0643554" lon="-6.1743814">
<ele>1293.32</ele>
<time>2023-09-08T09:56:10.000Z</time>
</trkpt>
<trkpt lat="43.0641727" lon="-6.1743085">
<ele>1295.32</ele>
<time>2023-09-08T09:57:03.000Z</time>
</trkpt>
<trkpt lat="43.0640123" lon="-6.1741737">
<ele>1301.32</ele>
<time>2023-09-08T09:58:19.000Z</time>
</trkpt>
<trkpt lat="43.0638997" lon="-6.1739726">
<ele>1301.32</ele>
<time>2023-09-08T09:59:13.000Z</time>
</trkpt>
<trkpt lat="43.0638617" lon="-6.1737272">
<ele>1301.32</ele>
<time>2023-09-08T09:59:28.000Z</time>
</trkpt>
<trkpt lat="43.0638400" lon="-6.1734789">
<ele>1301.30</ele>
<time>2023-09-08T09:59:43.000Z</time>
</trkpt>
<trkpt lat="43.0638266" lon="-6.1732179">
<ele>1302.32</ele>
<time>2023-09-08T10:00:00.000Z</time>
</trkpt>
<trkpt lat="43.0638185" lon="-6.1729621">
<ele>1301.41</ele>
<time>2023-09-08T10:00:15.000Z</time>
</trkpt>
<trkpt lat="43.0638027" lon="-6.1726965">
<ele>1301.32</ele>
<time>2023-09-08T10:00:30.000Z</time>
</trkpt>
<trkpt lat="43.0638895" lon="-6.1724640">
<ele>1302.32</ele>
<time>2023-09-08T10:00:47.000Z</time>
</trkpt>
<trkpt lat="43.0639203" lon="-6.1722163">
<ele>1303.02</ele>
<time>2023-09-08T10:01:06.000Z</time>
</trkpt>
<trkpt lat="43.0637710" lon="-6.1720623">
<ele>1303.32</ele>
<time>2023-09-08T10:01:23.000Z</time>
</trkpt>
<trkpt lat="43.0636504" lon="-6.1718672">
<ele>1301.32</ele>
<time>2023-09-08T10:01:52.000Z</time>
</trkpt>
<trkpt lat="43.0635745" lon="-6.1716351">
<ele>1300.29</ele>
<time>2023-09-08T10:02:06.000Z</time>
</trkpt>
<trkpt lat="43.0635259" lon="-6.1713980">
<ele>1298.62</ele>
<time>2023-09-08T10:02:21.000Z</time>
</trkpt>
<trkpt lat="43.0634974" lon="-6.1711468">
<ele>1298.32</ele>
<time>2023-09-08T10:02:37.000Z</time>
</trkpt>
<trkpt lat="43.0634339" lon="-6.1709113">
<ele>1298.32</ele>
<time>2023-09-08T10:02:52.000Z</time>
</trkpt>
<trkpt lat="43.0633301" lon="-6.1706949">
<ele>1300.32</ele>
<time>2023-09-08T10:03:13.000Z</time>
</trkpt>
<trkpt lat="43.0632205" lon="-6.1704948">
<ele>1306.32</ele>
<time>2023-09-08T10:03:53.000Z</time>
</trkpt>
<trkpt lat="43.0631142" lon="-6.1702928">
<ele>1306.32</ele>
<time>2023-09-08T10:04:07.000Z</time>
</trkpt>
<trkpt lat="43.0629963" lon="-6.1700856">
<ele>1306.31</ele>
<time>2023-09-08T10:04:23.000Z</time>
</trkpt>
<trkpt lat="43.0628069" lon="-6.1700741">
<ele>1304.31</ele>
<time>2023-09-08T10:04:41.000Z</time>
</trkpt>
<trkpt lat="43.0626224" lon="-6.1700872">
<ele>1303.41</ele>
<time>2023-09-08T10:04:59.000Z</time>
</trkpt>
<trkpt lat="43.0624983" lon="-6.1699051">
<ele>1303.33</ele>
<time>2023-09-08T10:05:15.000Z</time>
</trkpt>
<trkpt lat="43.0623835" lon="-6.1697031">
<ele>1304.03</ele>
<time>2023-09-08T10:05:30.000Z</time>
</trkpt>
<trkpt lat="43.0622857" lon="-6.1694769">
<ele>1305.33</ele>
<time>2023-09-08T10:05:45.000Z</time>
</trkpt>
<trkpt lat="43.0621458" lon="-6.1693062">
<ele>1306.42</ele>
<time>2023-09-08T10:06:01.000Z</time>
</trkpt>
<trkpt lat="43.0620129" lon="-6.1691170">
<ele>1307.03</ele>
<time>2023-09-08T10:06:16.000Z</time>
</trkpt>
<trkpt lat="43.0618925" lon="-6.1689163">
<ele>1308.33</ele>
<time>2023-09-08T10:06:31.000Z</time>
</trkpt>
<trkpt lat="43.0618277" lon="-6.1686812">
<ele>1307.33</ele>
<time>2023-09-08T10:06:47.000Z</time>
</trkpt>
<trkpt lat="43.0617687" lon="-6.1684330">
<ele>1305.33</ele>
<time>2023-09-08T10:07:04.000Z</time>
</trkpt>
<trkpt lat="43.0616520" lon="-6.1682320">
<ele>1305.34</ele>
<time>2023-09-08T10:07:19.000Z</time>
</trkpt>
<trkpt lat="43.0615074" lon="-6.1680799">
<ele>1305.34</ele>
<time>2023-09-08T10:07:33.000Z</time>
</trkpt>
<trkpt lat="43.0614296" lon="-6.1678568">
<ele>1305.30</ele>
<time>2023-09-08T10:07:47.000Z</time>
</trkpt>
<trkpt lat="43.0613215" lon="-6.1676406">
<ele>1304.33</ele>
<time>2023-09-08T10:08:03.000Z</time>
</trkpt>
<trkpt lat="43.0612810" lon="-6.1673988">
<ele>1304.33</ele>
<time>2023-09-08T10:08:19.000Z</time>
</trkpt>
<trkpt lat="43.0613196" lon="-6.1671523">
<ele>1308.33</ele>
<time>2023-09-08T10:08:38.000Z</time>
</trkpt>
<trkpt lat="43.0612876" lon="-6.1669095">
<ele>1308.33</ele>
<time>2023-09-08T10:08:53.000Z</time>
</trkpt>
<trkpt lat="43.0612143" lon="-6.1666765">
<ele>1307.33</ele>
<time>2023-09-08T10:09:08.000Z</time>
</trkpt>
<trkpt lat="43.0611042" lon="-6.1664639">
<ele>1306.63</ele>
<time>2023-09-08T10:09:25.000Z</time>
</trkpt>
<trkpt lat="43.0609981" lon="-6.1662464">
<ele>1306.33</ele>
<time>2023-09-08T10:09:40.000Z</time>
</trkpt>
<trkpt lat="43.0609077" lon="-6.1660263">
<ele>1306.03</ele>
<time>2023-09-08T10:09:54.000Z</time>
</trkpt>
<trkpt lat="43.0607390" lon="-6.1659252">
<ele>1305.34</ele>
<time>2023-09-08T10:10:08.000Z</time>
</trkpt>
<trkpt lat="43.0606167" lon="-6.1657381">
<ele>1308.34</ele>
<time>2023-09-08T10:10:44.000Z</time>
</trkpt>
<trkpt lat="43.0605326" lon="-6.1655127">
<ele>1307.64</ele>
<time>2023-09-08T10:11:00.000Z</time>
</trkpt>
<trkpt lat="43.0604573" lon="-6.1652871">
<ele>1310.25</ele>
<time>2023-09-08T10:11:17.000Z</time>
</trkpt>
<trkpt lat="43.0604063" lon="-6.1650459">
<ele>1310.34</ele>
<time>2023-09-08T10:11:48.000Z</time>
</trkpt>
<trkpt lat="43.0603671" lon="-6.1647997">
<ele>1310.33</ele>
<time>2023-09-08T10:12:03.000Z</time>
</trkpt>
<trkpt lat="43.0602443" lon="-6.1645998">
<ele>1311.31</ele>
<time>2023-09-08T10:12:18.000Z</time>
</trkpt>
<trkpt lat="43.0600873" lon="-6.1644543">
<ele>1311.34</ele>
<time>2023-09-08T10:12:32.000Z</time>
</trkpt>
<trkpt lat="43.0599847" lon="-6.1642451">
<ele>1311.34</ele>
<time>2023-09-08T10:12:46.000Z</time>
</trkpt>
<trkpt lat="43.0598848" lon="-6.1640267">
<ele>1311.33</ele>
<time>2023-09-08T10:13:01.000Z</time>
</trkpt>
<trkpt lat="43.0597284" lon="-6.1638887">
<ele>1311.32</ele>
<time>2023-09-08T10:13:45.000Z</time>
</trkpt>
<trkpt lat="43.0595883" lon="-6.1637313">
<ele>1310.34</ele>
<time>2023-09-08T10:14:11.000Z</time>
</trkpt>
<trkpt lat="43.0594230" lon="-6.1636094">
<ele>1314.04</ele>
<time>2023-09-08T10:14:46.000Z</time>
</trkpt>
<trkpt lat="43.0592872" lon="-6.1634463">
<ele>1319.33</ele>
<time>2023-09-08T10:15:20.000Z</time>
</trkpt>
<trkpt lat="43.0591714" lon="-6.1632458">
<ele>1325.25</ele>
<time>2023-09-08T10:15:50.000Z</time>
</trkpt>
<trkpt lat="43.0590288" lon="-6.1630874">
<ele>1325.35</ele>
<time>2023-09-08T10:16:29.000Z</time>
</trkpt>
<trkpt lat="43.0589185" lon="-6.1628786">
<ele>1329.11</ele>
<time>2023-09-08T10:16:54.000Z</time>
</trkpt>
<trkpt lat="43.0588081" lon="-6.1626734">
<ele>1341.22</ele>
<time>2023-09-08T10:17:17.000Z</time>
</trkpt>
<trkpt lat="43.0587195" lon="-6.1624448">
<ele>1338.42</ele>
<time>2023-09-08T10:17:35.000Z</time>
</trkpt>
<trkpt lat="43.0585994" lon="-6.1622387">
<ele>1339.35</ele>
<time>2023-09-08T10:17:52.000Z</time>
</trkpt>
<trkpt lat="43.0584618" lon="-6.1620673">
<ele>1339.35</ele>
<time>2023-09-08T10:18:06.000Z</time>
</trkpt>
<trkpt lat="43.0583158" lon="-6.1619072">
<ele>1337.35</ele>
<time>2023-09-08T10:18:21.000Z</time>
</trkpt>
<trkpt lat="43.0581740" lon="-6.1617431">
<ele>1335.35</ele>
<time>2023-09-08T10:18:37.000Z</time>
</trkpt>
<trkpt lat="43.0580064" lon="-6.1616474">
<ele>1333.44</ele>
<time>2023-09-08T10:18:53.000Z</time>
</trkpt>
<trkpt lat="43.0578273" lon="-6.1617129">
<ele>1339.34</ele>
<time>2023-09-08T10:19:28.000Z</time>
</trkpt>
<trkpt lat="43.0576374" lon="-6.1616839">
<ele>1341.26</ele>
<time>2023-09-08T10:19:47.000Z</time>
</trkpt>
<trkpt lat="43.0574771" lon="-6.1615574">
<ele>1342.56</ele>
<time>2023-09-08T10:20:05.000Z</time>
</trkpt>
<trkpt lat="43.0573585" lon="-6.1613645">
<ele>1342.32</ele>
<time>2023-09-08T10:20:22.000Z</time>
</trkpt>
<trkpt lat="43.0571701" lon="-6.1613941">
<ele>1345.35</ele>
<time>2023-09-08T10:21:24.000Z</time>
</trkpt>
<trkpt lat="43.0570501" lon="-6.1615857">
<ele>1349.26</ele>
<time>2023-09-08T10:21:45.000Z</time>
</trkpt>
<trkpt lat="43.0569408" lon="-6.1618004">
<ele>1353.26</ele>
<time>2023-09-08T10:22:07.000Z</time>
</trkpt>
<trkpt lat="43.0567667" lon="-6.1618625">
<ele>1356.95</ele>
<time>2023-09-08T10:22:50.000Z</time>
</trkpt>
<trkpt lat="43.0565837" lon="-6.1618532">
<ele>1359.37</ele>
<time>2023-09-08T10:23:13.000Z</time>
</trkpt>
<trkpt lat="43.0564605" lon="-6.1616669">
<ele>1361.17</ele>
<time>2023-09-08T10:23:35.000Z</time>
</trkpt>
<trkpt lat="43.0564107" lon="-6.1614231">
<ele>1361.26</ele>
<time>2023-09-08T10:23:53.000Z</time>
</trkpt>
<trkpt lat="43.0562821" lon="-6.1612491">
<ele>1363.65</ele>
<time>2023-09-08T10:24:50.000Z</time>
</trkpt>
<trkpt lat="43.0561793" lon="-6.1610272">
<ele>1362.29</ele>
<time>2023-09-08T10:25:07.000Z</time>
</trkpt>
<trkpt lat="43.0560841" lon="-6.1608141">
<ele>1360.36</ele>
<time>2023-09-08T10:25:21.000Z</time>
</trkpt>
<trkpt lat="43.0559910" lon="-6.1606017">
<ele>1359.35</ele>
<time>2023-09-08T10:25:36.000Z</time>
</trkpt>
<trkpt lat="43.0558828" lon="-6.1603901">
<ele>1358.36</ele>
<time>2023-09-08T10:25:51.000Z</time>
</trkpt>
<trkpt lat="43.0557723" lon="-6.1601911">
<ele>1357.36</ele>
<time>2023-09-08T10:26:08.000Z</time>
</trkpt>
<trkpt lat="43.0555882" lon="-6.1601754">
<ele>1360.36</ele>
<time>2023-09-08T10:27:31.000Z</time>
</trkpt>
<trkpt lat="43.0555444" lon="-6.1604165">
<ele>1365.06</ele>
<time>2023-09-08T10:27:58.000Z</time>
</trkpt>
<trkpt lat="43.0553625" lon="-6.1604330">
<ele>1367.42</ele>
<time>2023-09-08T10:30:25.000Z</time>
</trkpt>
<trkpt lat="43.0551954" lon="-6.1603039">
<ele>1372.33</ele>
<time>2023-09-08T10:30:44.000Z</time>
</trkpt>
<trkpt lat="43.0550299" lon="-6.1602045">
<ele>1372.44</ele>
<time>2023-09-08T10:31:06.000Z</time>
</trkpt>
<trkpt lat="43.0548655" lon="-6.1600802">
<ele>1373.06</ele>
<time>2023-09-08T10:31:30.000Z</time>
</trkpt>
<trkpt lat="43.0547494" lon="-6.1598865">
<ele>1374.45</ele>
<time>2023-09-08T10:31:59.000Z</time>
</trkpt>
<trkpt lat="43.0546132" lon="-6.1597241">
<ele>1382.32</ele>
<time>2023-09-08T10:32:21.000Z</time>
</trkpt>
<trkpt lat="43.0545189" lon="-6.1595020">
<ele>1386.27</ele>
<time>2023-09-08T10:32:41.000Z</time>
</trkpt>
<trkpt lat="43.0544032" lon="-6.1593130">
<ele>1388.45</ele>
<time>2023-09-08T10:33:00.000Z</time>
</trkpt>
<trkpt lat="43.0543377" lon="-6.1590719">
<ele>1392.06</ele>
<time>2023-09-08T10:33:19.000Z</time>
</trkpt>
<trkpt lat="43.0542639" lon="-6.1588424">
<ele>1394.34</ele>
<time>2023-09-08T10:33:39.000Z</time>
</trkpt>
<trkpt lat="43.0541789" lon="-6.1586206">
<ele>1399.26</ele>
<time>2023-09-08T10:33:56.000Z</time>
</trkpt>
<trkpt lat="43.0541157" lon="-6.1583778">
<ele>1400.66</ele>
<time>2023-09-08T10:34:14.000Z</time>
</trkpt>
<trkpt lat="43.0539546" lon="-6.1582511">
<ele>1402.36</ele>
<time>2023-09-08T10:34:35.000Z</time>
</trkpt>
<trkpt lat="43.0537775" lon="-6.1582006">
<ele>1406.36</ele>
<time>2023-09-08T10:34:56.000Z</time>
</trkpt>
<trkpt lat="43.0536546" lon="-6.1580056">
<ele>1407.36</ele>
<time>2023-09-08T10:35:14.000Z</time>
</trkpt>
<trkpt lat="43.0535554" lon="-6.1577903">
<ele>1408.36</ele>
<time>2023-09-08T10:35:29.000Z</time>
</trkpt>
<trkpt lat="43.0534348" lon="-6.1575912">
<ele>1408.35</ele>
<time>2023-09-08T10:35:48.000Z</time>
</trkpt>
<trkpt lat="43.0532796" lon="-6.1574487">
<ele>1407.43</ele>
<time>2023-09-08T10:36:06.000Z</time>
</trkpt>
<trkpt lat="43.0531044" lon="-6.1573697">
<ele>1409.07</ele>
<time>2023-09-08T10:36:24.000Z</time>
</trkpt>
<trkpt lat="43.0529515" lon="-6.1572347">
<ele>1410.34</ele>
<time>2023-09-08T10:36:41.000Z</time>
</trkpt>
<trkpt lat="43.0527877" lon="-6.1571175">
<ele>1412.36</ele>
<time>2023-09-08T10:36:58.000Z</time>
</trkpt>
<trkpt lat="43.0527002" lon="-6.1569005">
<ele>1412.28</ele>
<time>2023-09-08T10:37:16.000Z</time>
</trkpt>
<trkpt lat="43.0525803" lon="-6.1567023">
<ele>1412.37</ele>
<time>2023-09-08T10:37:33.000Z</time>
</trkpt>
<trkpt lat="43.0524477" lon="-6.1565177">
<ele>1411.39</ele>
<time>2023-09-08T10:37:51.000Z</time>
</trkpt>
<trkpt lat="43.0524528" lon="-6.1562659">
<ele>1413.37</ele>
<time>2023-09-08T10:38:09.000Z</time>
</trkpt>
<trkpt lat="43.0524514" lon="-6.1560082">
<ele>1416.34</ele>
<time>2023-09-08T10:38:26.000Z</time>
</trkpt>
<trkpt lat="43.0523855" lon="-6.1557778">
<ele>1419.36</ele>
<time>2023-09-08T10:38:42.000Z</time>
</trkpt>
<trkpt lat="43.0523622" lon="-6.1555320">
<ele>1418.58</ele>
<time>2023-09-08T10:38:59.000Z</time>
</trkpt>
<trkpt lat="43.0523535" lon="-6.1552778">
<ele>1422.28</ele>
<time>2023-09-08T10:39:16.000Z</time>
</trkpt>
<trkpt lat="43.0522848" lon="-6.1550353">
<ele>1424.37</ele>
<time>2023-09-08T10:40:10.000Z</time>
</trkpt>
<trkpt lat="43.0521998" lon="-6.1548131">
<ele>1425.67</ele>
<time>2023-09-08T10:40:24.000Z</time>
</trkpt>
<trkpt lat="43.0520924" lon="-6.1546117">
<ele>1429.07</ele>
<time>2023-09-08T10:40:40.000Z</time>
</trkpt>
<trkpt lat="43.0519939" lon="-6.1544010">
<ele>1431.37</ele>
<time>2023-09-08T10:41:01.000Z</time>
</trkpt>
<trkpt lat="43.0519417" lon="-6.1541585">
<ele>1434.37</ele>
<time>2023-09-08T10:41:59.000Z</time>
</trkpt>
<trkpt lat="43.0518349" lon="-6.1539546">
<ele>1438.28</ele>
<time>2023-09-08T10:42:20.000Z</time>
</trkpt>
<trkpt lat="43.0517233" lon="-6.1537579">
<ele>1442.07</ele>
<time>2023-09-08T10:42:40.000Z</time>
</trkpt>
<trkpt lat="43.0515730" lon="-6.1536130">
<ele>1444.35</ele>
<time>2023-09-08T10:42:59.000Z</time>
</trkpt>
<trkpt lat="43.0514868" lon="-6.1533876">
<ele>1445.07</ele>
<time>2023-09-08T10:43:19.000Z</time>
</trkpt>
<trkpt lat="43.0513670" lon="-6.1531936">
<ele>1447.35</ele>
<time>2023-09-08T10:43:36.000Z</time>
</trkpt>
<trkpt lat="43.0512513" lon="-6.1529967">
<ele>1449.38</ele>
<time>2023-09-08T10:43:54.000Z</time>
</trkpt>
<trkpt lat="43.0511183" lon="-6.1528276">
<ele>1452.29</ele>
<time>2023-09-08T10:44:15.000Z</time>
</trkpt>
<trkpt lat="43.0509851" lon="-6.1526565">
<ele>1456.28</ele>
<time>2023-09-08T10:44:34.000Z</time>
</trkpt>
<trkpt lat="43.0508587" lon="-6.1524743">
<ele>1459.38</ele>
<time>2023-09-08T10:45:17.000Z</time>
</trkpt>
<trkpt lat="43.0507115" lon="-6.1523277">
<ele>1462.44</ele>
<time>2023-09-08T10:46:16.000Z</time>
</trkpt>
<trkpt lat="43.0505298" lon="-6.1523040">
<ele>1463.68</ele>
<time>2023-09-08T10:47:02.000Z</time>
</trkpt>
<trkpt lat="43.0503479" lon="-6.1523520">
<ele>1471.38</ele>
<time>2023-09-08T10:49:39.000Z</time>
</trkpt>
<trkpt lat="43.0501615" lon="-6.1523328">
<ele>1471.38</ele>
<time>2023-09-08T10:50:00.000Z</time>
</trkpt>
<trkpt lat="43.0499813" lon="-6.1522700">
<ele>1478.08</ele>
<time>2023-09-08T10:50:32.000Z</time>
</trkpt>
<trkpt lat="43.0497994" lon="-6.1522350">
<ele>1481.35</ele>
<time>2023-09-08T10:50:59.000Z</time>
</trkpt>
<trkpt lat="43.0496045" lon="-6.1521864">
<ele>1481.68</ele>
<time>2023-09-08T10:51:29.000Z</time>
</trkpt>
<trkpt lat="43.0494344" lon="-6.1521045">
<ele>1487.36</ele>
<time>2023-09-08T10:51:51.000Z</time>
</trkpt>
<trkpt lat="43.0493135" lon="-6.1519164">
<ele>1490.41</ele>
<time>2023-09-08T10:52:11.000Z</time>
</trkpt>
<trkpt lat="43.0492498" lon="-6.1516764">
<ele>1491.38</ele>
<time>2023-09-08T10:52:29.000Z</time>
</trkpt>
<trkpt lat="43.0492609" lon="-6.1514253">
<ele>1490.68</ele>
<time>2023-09-08T10:52:45.000Z</time>
</trkpt>
<trkpt lat="43.0492107" lon="-6.1511878">
<ele>1490.62</ele>
<time>2023-09-08T10:53:20.000Z</time>
</trkpt>
<trkpt lat="43.0490915" lon="-6.1509878">
<ele>1489.39</ele>
<time>2023-09-08T10:53:35.000Z</time>
</trkpt>
<trkpt lat="43.0489751" lon="-6.1507873">
<ele>1492.59</ele>
<time>2023-09-08T10:54:31.000Z</time>
</trkpt>
<trkpt lat="43.0488702" lon="-6.1505743">
<ele>1492.39</ele>
<time>2023-09-08T10:58:51.000Z</time>
</trkpt>
<trkpt lat="43.0488288" lon="-6.1503245">
<ele>1490.30</ele>
<time>2023-09-08T10:59:16.000Z</time>
</trkpt>
<trkpt lat="43.0488631" lon="-6.1500775">
<ele>1490.69</ele>
<time>2023-09-08T11:00:31.000Z</time>
</trkpt>
<trkpt lat="43.0488236" lon="-6.1498365">
<ele>1487.32</ele>
<time>2023-09-08T11:01:07.000Z</time>
</trkpt>
<trkpt lat="43.0487650" lon="-6.1495947">
<ele>1489.39</ele>
<time>2023-09-08T11:01:30.000Z</time>
</trkpt>
<trkpt lat="43.0486802" lon="-6.1493775">
<ele>1489.37</ele>
<time>2023-09-08T11:01:56.000Z</time>
</trkpt>
<trkpt lat="43.0485937" lon="-6.1491585">
<ele>1490.38</ele>
<time>2023-09-08T11:02:36.000Z</time>
</trkpt>
<trkpt lat="43.0485236" lon="-6.1489310">
<ele>1489.48</ele>
<time>2023-09-08T11:03:13.000Z</time>
</trkpt>
<trkpt lat="43.0484478" lon="-6.1487050">
<ele>1485.38</ele>
<time>2023-09-08T11:03:45.000Z</time>
</trkpt>
<trkpt lat="43.0483367" lon="-6.1485004">
<ele>1486.39</ele>
<time>2023-09-08T11:04:13.000Z</time>
</trkpt>
<trkpt lat="43.0482000" lon="-6.1483332">
<ele>1488.38</ele>
<time>2023-09-08T11:04:34.000Z</time>
</trkpt>
<trkpt lat="43.0480609" lon="-6.1481579">
<ele>1489.39</ele>
<time>2023-09-08T11:05:43.000Z</time>
</trkpt>
<trkpt lat="43.0479477" lon="-6.1479555">
<ele>1491.38</ele>
<time>2023-09-08T11:06:03.000Z</time>
</trkpt>
<trkpt lat="43.0478039" lon="-6.1477959">
<ele>1492.38</ele>
<time>2023-09-08T11:06:23.000Z</time>
</trkpt>
<trkpt lat="43.0476204" lon="-6.1477690">
<ele>1495.33</ele>
<time>2023-09-08T11:06:51.000Z</time>
</trkpt>
<trkpt lat="43.0474577" lon="-6.1476505">
<ele>1501.09</ele>
<time>2023-09-08T11:07:32.000Z</time>
</trkpt>
<trkpt lat="43.0472961" lon="-6.1475033">
<ele>1500.11</ele>
<time>2023-09-08T11:07:50.000Z</time>
</trkpt>
<trkpt lat="43.0471484" lon="-6.1473606">
<ele>1499.33</ele>
<time>2023-09-08T11:08:08.000Z</time>
</trkpt>
<trkpt lat="43.0470027" lon="-6.1472148">
<ele>1502.37</ele>
<time>2023-09-08T11:08:23.000Z</time>
</trkpt>
<trkpt lat="43.0468229" lon="-6.1471040">
<ele>1501.70</ele>
<time>2023-09-08T11:08:58.000Z</time>
</trkpt>
<trkpt lat="43.0466793" lon="-6.1469342">
<ele>1499.40</ele>
<time>2023-09-08T11:09:18.000Z</time>
</trkpt>
<trkpt lat="43.0465431" lon="-6.1467648">
<ele>1502.37</ele>
<time>2023-09-08T11:09:49.000Z</time>
</trkpt>
<trkpt lat="43.0464054" lon="-6.1466008">
<ele>1502.10</ele>
<time>2023-09-08T11:10:09.000Z</time>
</trkpt>
<trkpt lat="43.0462481" lon="-6.1464587">
<ele>1503.37</ele>
<time>2023-09-08T11:10:33.000Z</time>
</trkpt>
<trkpt lat="43.0460900" lon="-6.1463345">
<ele>1508.46</ele>
<time>2023-09-08T11:11:01.000Z</time>
</trkpt>
<trkpt lat="43.0459007" lon="-6.1463142">
<ele>1512.31</ele>
<time>2023-09-08T11:11:18.000Z</time>
</trkpt>
<trkpt lat="43.0457166" lon="-6.1462806">
<ele>1513.12</ele>
<time>2023-09-08T11:11:37.000Z</time>
</trkpt>
<trkpt lat="43.0455898" lon="-6.1460954">
<ele>1514.41</ele>
<time>2023-09-08T11:12:03.000Z</time>
</trkpt>
<trkpt lat="43.0454972" lon="-6.1458750">
<ele>1515.49</ele>
<time>2023-09-08T11:12:36.000Z</time>
</trkpt>
<trkpt lat="43.0453272" lon="-6.1457766">
<ele>1516.40</ele>
<time>2023-09-08T11:12:54.000Z</time>
</trkpt>
<trkpt lat="43.0451517" lon="-6.1456946">
<ele>1518.40</ele>
<time>2023-09-08T11:13:44.000Z</time>
</trkpt>
<trkpt lat="43.0449691" lon="-6.1456228">
<ele>1520.31</ele>
<time>2023-09-08T11:14:02.000Z</time>
</trkpt>
<trkpt lat="43.0447912" lon="-6.1455654">
<ele>1520.40</ele>
<time>2023-09-08T11:14:21.000Z</time>
</trkpt>
<trkpt lat="43.0446074" lon="-6.1455117">
<ele>1522.38</ele>
<time>2023-09-08T11:14:41.000Z</time>
</trkpt>
<trkpt lat="43.0444392" lon="-6.1454141">
<ele>1523.40</ele>
<time>2023-09-08T11:15:01.000Z</time>
</trkpt>
<trkpt lat="43.0442795" lon="-6.1452811">
<ele>1527.41</ele>
<time>2023-09-08T11:15:53.000Z</time>
</trkpt>
<trkpt lat="43.0441273" lon="-6.1451320">
<ele>1527.32</ele>
<time>2023-09-08T11:16:10.000Z</time>
</trkpt>
<trkpt lat="43.0439570" lon="-6.1450371">
<ele>1527.41</ele>
<time>2023-09-08T11:16:30.000Z</time>
</trkpt>
<trkpt lat="43.0438384" lon="-6.1448499">
<ele>1528.40</ele>
<time>2023-09-08T11:16:50.000Z</time>
</trkpt>
<trkpt lat="43.0436852" lon="-6.1447073">
<ele>1533.41</ele>
<time>2023-09-08T11:17:25.000Z</time>
</trkpt>
<trkpt lat="43.0435933" lon="-6.1444864">
<ele>1538.11</ele>
<time>2023-09-08T11:17:52.000Z</time>
</trkpt>
<trkpt lat="43.0435534" lon="-6.1442390">
<ele>1540.41</ele>
<time>2023-09-08T11:18:14.000Z</time>
</trkpt>
<trkpt lat="43.0435068" lon="-6.1439961">
<ele>1543.41</ele>
<time>2023-09-08T11:19:07.000Z</time>
</trkpt>
<trkpt lat="43.0434813" lon="-6.1437440">
<ele>1546.11</ele>
<time>2023-09-08T11:19:34.000Z</time>
</trkpt>
<trkpt lat="43.0434236" lon="-6.1435085">
<ele>1549.41</ele>
<time>2023-09-08T11:20:32.000Z</time>
</trkpt>
<trkpt lat="43.0433530" lon="-6.1432666">
<ele>1553.11</ele>
<time>2023-09-08T11:20:58.000Z</time>
</trkpt>
<trkpt lat="43.0432412" lon="-6.1430730">
<ele>1560.32</ele>
<time>2023-09-08T11:21:37.000Z</time>
</trkpt>
<trkpt lat="43.0430875" lon="-6.1429254">
<ele>1563.20</ele>
<time>2023-09-08T11:22:00.000Z</time>
</trkpt>
<trkpt lat="43.0429794" lon="-6.1427155">
<ele>1564.41</ele>
<time>2023-09-08T11:22:21.000Z</time>
</trkpt>
<trkpt lat="43.0428559" lon="-6.1425355">
<ele>1564.41</ele>
<time>2023-09-08T11:22:41.000Z</time>
</trkpt>
<trkpt lat="43.0427363" lon="-6.1423458">
<ele>1562.41</ele>
<time>2023-09-08T11:23:08.000Z</time>
</trkpt>
<trkpt lat="43.0425884" lon="-6.1422012">
<ele>1560.42</ele>
<time>2023-09-08T11:23:25.000Z</time>
</trkpt>
<trkpt lat="43.0424472" lon="-6.1420291">
<ele>1559.20</ele>
<time>2023-09-08T11:24:15.000Z</time>
</trkpt>
<trkpt lat="43.0422666" lon="-6.1419934">
<ele>1560.41</ele>
<time>2023-09-08T11:24:33.000Z</time>
</trkpt>
<trkpt lat="43.0420846" lon="-6.1419726">
<ele>1564.41</ele>
<time>2023-09-08T11:24:57.000Z</time>
</trkpt>
<trkpt lat="43.0419647" lon="-6.1417771">
<ele>1566.40</ele>
<time>2023-09-08T11:25:21.000Z</time>
</trkpt>
<trkpt lat="43.0418519" lon="-6.1415788">
<ele>1565.71</ele>
<time>2023-09-08T11:25:41.000Z</time>
</trkpt>
<trkpt lat="43.0417582" lon="-6.1413624">
<ele>1564.44</ele>
<time>2023-09-08T11:26:03.000Z</time>
</trkpt>
<trkpt lat="43.0418259" lon="-6.1411308">
<ele>1566.42</ele>
<time>2023-09-08T11:31:48.000Z</time>
</trkpt>
<trkpt lat="43.0419793" lon="-6.1410017">
<ele>1567.41</ele>
<time>2023-09-08T11:33:09.000Z</time>
</trkpt>
<trkpt lat="43.0421366" lon="-6.1408669">
<ele>1567.41</ele>
<time>2023-09-08T11:33:33.000Z</time>
</trkpt>
<trkpt lat="43.0423183" lon="-6.1408633">
<ele>1569.39</ele>
<time>2023-09-08T11:34:22.000Z</time>
</trkpt>
<trkpt lat="43.0424922" lon="-6.1409392">
<ele>1568.39</ele>
<time>2023-09-08T11:35:00.000Z</time>
</trkpt>
<trkpt lat="43.0426749" lon="-6.1408797">
<ele>1567.44</ele>
<time>2023-09-08T11:35:25.000Z</time>
</trkpt>
<trkpt lat="43.0428505" lon="-6.1408151">
<ele>1568.41</ele>
<time>2023-09-08T11:35:44.000Z</time>
</trkpt>
<trkpt lat="43.0430356" lon="-6.1408007">
<ele>1568.70</ele>
<time>2023-09-08T11:37:20.000Z</time>
</trkpt>
<trkpt lat="43.0431883" lon="-6.1406637">
<ele>1569.50</ele>
<time>2023-09-08T11:38:04.000Z</time>
</trkpt>
<trkpt lat="43.0433348" lon="-6.1405193">
<ele>1571.40</ele>
<time>2023-09-08T11:38:39.000Z</time>
</trkpt>
<trkpt lat="43.0434767" lon="-6.1403670">
<ele>1574.41</ele>
<time>2023-09-08T11:39:05.000Z</time>
</trkpt>
<trkpt lat="43.0436229" lon="-6.1402099">
<ele>1575.41</ele>
<time>2023-09-08T11:39:25.000Z</time>
</trkpt>
<trkpt lat="43.0437955" lon="-6.1401289">
<ele>1574.44</ele>
<time>2023-09-08T11:39:47.000Z</time>
</trkpt>
<trkpt lat="43.0439819" lon="-6.1401421">
<ele>1572.38</ele>
<time>2023-09-08T11:40:14.000Z</time>
</trkpt>
<trkpt lat="43.0441625" lon="-6.1401762">
<ele>1567.63</ele>
<time>2023-09-08T11:40:47.000Z</time>
</trkpt>
<trkpt lat="43.0443334" lon="-6.1400702">
<ele>1567.41</ele>
<time>2023-09-08T11:41:12.000Z</time>
</trkpt>
<trkpt lat="43.0445076" lon="-6.1399611">
<ele>1568.41</ele>
<time>2023-09-08T11:41:34.000Z</time>
</trkpt>
<trkpt lat="43.0446734" lon="-6.1398628">
<ele>1570.13</ele>
<time>2023-09-08T11:41:59.000Z</time>
</trkpt>
<trkpt lat="43.0447419" lon="-6.1396280">
<ele>1568.41</ele>
<time>2023-09-08T11:42:51.000Z</time>
</trkpt>
<trkpt lat="43.0447838" lon="-6.1393865">
<ele>1568.41</ele>
<time>2023-09-08T11:43:29.000Z</time>
</trkpt>
<trkpt lat="43.0448358" lon="-6.1391406">
<ele>1566.50</ele>
<time>2023-09-08T11:43:50.000Z</time>
</trkpt>
<trkpt lat="43.0448702" lon="-6.1388848">
<ele>1567.41</ele>
<time>2023-09-08T11:44:22.000Z</time>
</trkpt>
<trkpt lat="43.0448648" lon="-6.1386346">
<ele>1568.41</ele>
<time>2023-09-08T11:44:49.000Z</time>
</trkpt>
<trkpt lat="43.0448578" lon="-6.1383879">
<ele>1569.11</ele>
<time>2023-09-08T11:45:17.000Z</time>
</trkpt>
<trkpt lat="43.0448748" lon="-6.1381415">
<ele>1570.41</ele>
<time>2023-09-08T11:45:39.000Z</time>
</trkpt>
<trkpt lat="43.0448438" lon="-6.1378842">
<ele>1568.41</ele>
<time>2023-09-08T11:46:16.000Z</time>
</trkpt>
<trkpt lat="43.0448426" lon="-6.1376343">
<ele>1568.40</ele>
<time>2023-09-08T11:47:18.000Z</time>
</trkpt>
<trkpt lat="43.0448017" lon="-6.1373874">
<ele>1566.44</ele>
<time>2023-09-08T11:47:43.000Z</time>
</trkpt>
<trkpt lat="43.0447208" lon="-6.1371558">
<ele>1567.38</ele>
<time>2023-09-08T11:48:01.000Z</time>
</trkpt>
<trkpt lat="43.0445887" lon="-6.1369870">
<ele>1567.41</ele>
<time>2023-09-08T11:48:28.000Z</time>
</trkpt>
<trkpt lat="43.0444038" lon="-6.1369295">
<ele>1568.41</ele>
<time>2023-09-08T11:48:59.000Z</time>
</trkpt>
<trkpt lat="43.0442263" lon="-6.1368483">
<ele>1568.44</ele>
<time>2023-09-08T11:49:54.000Z</time>
</trkpt>
<trkpt lat="43.0440910" lon="-6.1366853">
<ele>1568.11</ele>
<time>2023-09-08T11:50:33.000Z</time>
</trkpt>
<trkpt lat="43.0439580" lon="-6.1364979">
<ele>1568.41</ele>
<time>2023-09-08T11:50:52.000Z</time>
</trkpt>
<trkpt lat="43.0437909" lon="-6.1363814">
<ele>1569.41</ele>
<time>2023-09-08T11:51:12.000Z</time>
</trkpt>
<trkpt lat="43.0436083" lon="-6.1363422">
<ele>1570.41</ele>
<time>2023-09-08T11:51:32.000Z</time>
</trkpt>
<trkpt lat="43.0434206" lon="-6.1363481">
<ele>1570.39</ele>
<time>2023-09-08T11:51:51.000Z</time>
</trkpt>
<trkpt lat="43.0432345" lon="-6.1363480">
<ele>1569.41</ele>
<time>2023-09-08T11:52:11.000Z</time>
</trkpt>
<trkpt lat="43.0430533" lon="-6.1363417">
<ele>1570.50</ele>
<time>2023-09-08T11:52:33.000Z</time>
</trkpt>
<trkpt lat="43.0428740" lon="-6.1363864">
<ele>1575.33</ele>
<time>2023-09-08T11:53:07.000Z</time>
</trkpt>
<trkpt lat="43.0427022" lon="-6.1364730">
<ele>1579.41</ele>
<time>2023-09-08T11:55:07.000Z</time>
</trkpt>
<trkpt lat="43.0425225" lon="-6.1364963">
<ele>1583.33</ele>
<time>2023-09-08T11:57:17.000Z</time>
</trkpt>
<trkpt lat="43.0424858" lon="-6.1367477">
<ele>1584.51</ele>
<time>2023-09-08T11:57:59.000Z</time>
</trkpt>
<trkpt lat="43.0425338" lon="-6.1365043">
<ele>1584.42</ele>
<time>2023-09-08T12:07:52.000Z</time>
</trkpt>
<trkpt lat="43.0427122" lon="-6.1364630">
<ele>1583.42</ele>
<time>2023-09-08T12:11:25.000Z</time>
</trkpt>
<trkpt lat="43.0428946" lon="-6.1364037">
<ele>1580.72</ele>
<time>2023-09-08T12:11:52.000Z</time>
</trkpt>
<trkpt lat="43.0430764" lon="-6.1363626">
<ele>1578.41</ele>
<time>2023-09-08T12:12:23.000Z</time>
</trkpt>
<trkpt lat="43.0432571" lon="-6.1363844">
<ele>1575.42</ele>
<time>2023-09-08T12:12:43.000Z</time>
</trkpt>
<trkpt lat="43.0434429" lon="-6.1363748">
<ele>1575.41</ele>
<time>2023-09-08T12:13:14.000Z</time>
</trkpt>
<trkpt lat="43.0436316" lon="-6.1363847">
<ele>1575.41</ele>
<time>2023-09-08T12:13:35.000Z</time>
</trkpt>
<trkpt lat="43.0438058" lon="-6.1364495">
<ele>1575.41</ele>
<time>2023-09-08T12:13:53.000Z</time>
</trkpt>
<trkpt lat="43.0439736" lon="-6.1365437">
<ele>1572.41</ele>
<time>2023-09-08T12:15:03.000Z</time>
</trkpt>
<trkpt lat="43.0441074" lon="-6.1367149">
<ele>1571.41</ele>
<time>2023-09-08T12:15:23.000Z</time>
</trkpt>
<trkpt lat="43.0442429" lon="-6.1368789">
<ele>1571.41</ele>
<time>2023-09-08T12:15:42.000Z</time>
</trkpt>
<trkpt lat="43.0444168" lon="-6.1369568">
<ele>1573.32</ele>
<time>2023-09-08T12:16:02.000Z</time>
</trkpt>
<trkpt lat="43.0445939" lon="-6.1370008">
<ele>1572.41</ele>
<time>2023-09-08T12:16:24.000Z</time>
</trkpt>
<trkpt lat="43.0447192" lon="-6.1371858">
<ele>1571.64</ele>
<time>2023-09-08T12:16:50.000Z</time>
</trkpt>
<trkpt lat="43.0447926" lon="-6.1374265">
<ele>1573.41</ele>
<time>2023-09-08T12:17:19.000Z</time>
</trkpt>
<trkpt lat="43.0448199" lon="-6.1376709">
<ele>1572.41</ele>
<time>2023-09-08T12:18:05.000Z</time>
</trkpt>
<trkpt lat="43.0448231" lon="-6.1379231">
<ele>1572.11</ele>
<time>2023-09-08T12:18:33.000Z</time>
</trkpt>
<trkpt lat="43.0448872" lon="-6.1381653">
<ele>1573.32</ele>
<time>2023-09-08T12:18:54.000Z</time>
</trkpt>
<trkpt lat="43.0449241" lon="-6.1384122">
<ele>1570.41</ele>
<time>2023-09-08T12:19:24.000Z</time>
</trkpt>
<trkpt lat="43.0449253" lon="-6.1386690">
<ele>1567.41</ele>
<time>2023-09-08T12:30:02.000Z</time>
</trkpt>
<trkpt lat="43.0450362" lon="-6.1388635">
<ele>1568.32</ele>
<time>2023-09-08T12:30:53.000Z</time>
</trkpt>
<trkpt lat="43.0450984" lon="-6.1391070">
<ele>1564.41</ele>
<time>2023-09-08T12:31:12.000Z</time>
</trkpt>
<trkpt lat="43.0452228" lon="-6.1392979">
<ele>1562.41</ele>
<time>2023-09-08T12:31:29.000Z</time>
</trkpt>
<trkpt lat="43.0453073" lon="-6.1395200">
<ele>1562.41</ele>
<time>2023-09-08T12:32:18.000Z</time>
</trkpt>
<trkpt lat="43.0454086" lon="-6.1397392">
<ele>1560.40</ele>
<time>2023-09-08T12:32:36.000Z</time>
</trkpt>
<trkpt lat="43.0455334" lon="-6.1399245">
<ele>1559.43</ele>
<time>2023-09-08T12:32:53.000Z</time>
</trkpt>
<trkpt lat="43.0456684" lon="-6.1400882">
<ele>1557.40</ele>
<time>2023-09-08T12:33:10.000Z</time>
</trkpt>
<trkpt lat="43.0458123" lon="-6.1402482">
<ele>1559.43</ele>
<time>2023-09-08T12:34:19.000Z</time>
</trkpt>
<trkpt lat="43.0459555" lon="-6.1404098">
<ele>1558.40</ele>
<time>2023-09-08T12:34:46.000Z</time>
</trkpt>
<trkpt lat="43.0461276" lon="-6.1405133">
<ele>1556.49</ele>
<time>2023-09-08T12:35:02.000Z</time>
</trkpt>
<trkpt lat="43.0462930" lon="-6.1406261">
<ele>1553.70</ele>
<time>2023-09-08T12:35:43.000Z</time>
</trkpt>
<trkpt lat="43.0463971" lon="-6.1408397">
<ele>1549.70</ele>
<time>2023-09-08T12:36:01.000Z</time>
</trkpt>
<trkpt lat="43.0464509" lon="-6.1410815">
<ele>1546.70</ele>
<time>2023-09-08T12:36:18.000Z</time>
</trkpt>
<trkpt lat="43.0465450" lon="-6.1413023">
<ele>1541.70</ele>
<time>2023-09-08T12:36:53.000Z</time>
</trkpt>
<trkpt lat="43.0466781" lon="-6.1414751">
<ele>1537.40</ele>
<time>2023-09-08T12:37:19.000Z</time>
</trkpt>
<trkpt lat="43.0467943" lon="-6.1416753">
<ele>1535.11</ele>
<time>2023-09-08T12:37:34.000Z</time>
</trkpt>
<trkpt lat="43.0468910" lon="-6.1418846">
<ele>1531.48</ele>
<time>2023-09-08T12:37:56.000Z</time>
</trkpt>
<trkpt lat="43.0470039" lon="-6.1420889">
<ele>1527.40</ele>
<time>2023-09-08T12:38:25.000Z</time>
</trkpt>
<trkpt lat="43.0471296" lon="-6.1422649">
<ele>1525.49</ele>
<time>2023-09-08T12:38:45.000Z</time>
</trkpt>
<trkpt lat="43.0472951" lon="-6.1423653">
<ele>1520.40</ele>
<time>2023-09-08T12:39:26.000Z</time>
</trkpt>
<trkpt lat="43.0474275" lon="-6.1425374">
<ele>1514.70</ele>
<time>2023-09-08T12:39:55.000Z</time>
</trkpt>
<trkpt lat="43.0474565" lon="-6.1427880">
<ele>1509.42</ele>
<time>2023-09-08T12:41:07.000Z</time>
</trkpt>
<trkpt lat="43.0474830" lon="-6.1430419">
<ele>1505.40</ele>
<time>2023-09-08T12:42:13.000Z</time>
</trkpt>
<trkpt lat="43.0475389" lon="-6.1432782">
<ele>1501.49</ele>
<time>2023-09-08T12:42:34.000Z</time>
</trkpt>
<trkpt lat="43.0475625" lon="-6.1435241">
<ele>1496.61</ele>
<time>2023-09-08T12:43:27.000Z</time>
</trkpt>
<trkpt lat="43.0476997" lon="-6.1436843">
<ele>1492.40</ele>
<time>2023-09-08T12:43:54.000Z</time>
</trkpt>
<trkpt lat="43.0478836" lon="-6.1436769">
<ele>1488.39</ele>
<time>2023-09-08T12:44:21.000Z</time>
</trkpt>
<trkpt lat="43.0480298" lon="-6.1438257">
<ele>1485.39</ele>
<time>2023-09-08T12:44:41.000Z</time>
</trkpt>
<trkpt lat="43.0480977" lon="-6.1440592">
<ele>1484.39</ele>
<time>2023-09-08T12:45:10.000Z</time>
</trkpt>
<trkpt lat="43.0481729" lon="-6.1442837">
<ele>1482.39</ele>
<time>2023-09-08T12:45:28.000Z</time>
</trkpt>
<trkpt lat="43.0482876" lon="-6.1444831">
<ele>1479.39</ele>
<time>2023-09-08T12:45:48.000Z</time>
</trkpt>
<trkpt lat="43.0483998" lon="-6.1446793">
<ele>1478.39</ele>
<time>2023-09-08T12:46:07.000Z</time>
</trkpt>
<trkpt lat="43.0485248" lon="-6.1448565">
<ele>1476.39</ele>
<time>2023-09-08T12:46:24.000Z</time>
</trkpt>
<trkpt lat="43.0486996" lon="-6.1449322">
<ele>1478.09</ele>
<time>2023-09-08T12:47:01.000Z</time>
</trkpt>
<trkpt lat="43.0488793" lon="-6.1449612">
<ele>1478.39</ele>
<time>2023-09-08T12:47:47.000Z</time>
</trkpt>
<trkpt lat="43.0490673" lon="-6.1449989">
<ele>1476.39</ele>
<time>2023-09-08T12:48:21.000Z</time>
</trkpt>
<trkpt lat="43.0492399" lon="-6.1450761">
<ele>1474.39</ele>
<time>2023-09-08T12:48:36.000Z</time>
</trkpt>
<trkpt lat="43.0494112" lon="-6.1451763">
<ele>1475.15</ele>
<time>2023-09-08T12:48:53.000Z</time>
</trkpt>
<trkpt lat="43.0495645" lon="-6.1453255">
<ele>1473.67</ele>
<time>2023-09-08T12:49:10.000Z</time>
</trkpt>
<trkpt lat="43.0496988" lon="-6.1454931">
<ele>1471.39</ele>
<time>2023-09-08T12:49:25.000Z</time>
</trkpt>
<trkpt lat="43.0498346" lon="-6.1456671">
<ele>1469.41</ele>
<time>2023-09-08T12:49:42.000Z</time>
</trkpt>
<trkpt lat="43.0499876" lon="-6.1458021">
<ele>1468.38</ele>
<time>2023-09-08T12:50:11.000Z</time>
</trkpt>
<trkpt lat="43.0501377" lon="-6.1459416">
<ele>1469.38</ele>
<time>2023-09-08T12:50:26.000Z</time>
</trkpt>
<trkpt lat="43.0502109" lon="-6.1461748">
<ele>1469.38</ele>
<time>2023-09-08T12:50:52.000Z</time>
</trkpt>
<trkpt lat="43.0502631" lon="-6.1464144">
<ele>1465.68</ele>
<time>2023-09-08T12:51:32.000Z</time>
</trkpt>
<trkpt lat="43.0503736" lon="-6.1466124">
<ele>1462.39</ele>
<time>2023-09-08T12:51:53.000Z</time>
</trkpt>
<trkpt lat="43.0504388" lon="-6.1468453">
<ele>1456.62</ele>
<time>2023-09-08T12:52:30.000Z</time>
</trkpt>
<trkpt lat="43.0505326" lon="-6.1470584">
<ele>1453.39</ele>
<time>2023-09-08T12:52:47.000Z</time>
</trkpt>
<trkpt lat="43.0505740" lon="-6.1473052">
<ele>1451.29</ele>
<time>2023-09-08T12:53:04.000Z</time>
</trkpt>
<trkpt lat="43.0506370" lon="-6.1475505">
<ele>1450.38</ele>
<time>2023-09-08T12:53:20.000Z</time>
</trkpt>
<trkpt lat="43.0507090" lon="-6.1477858">
<ele>1450.41</ele>
<time>2023-09-08T12:53:37.000Z</time>
</trkpt>
<trkpt lat="43.0507833" lon="-6.1480180">
<ele>1453.68</ele>
<time>2023-09-08T12:54:41.000Z</time>
</trkpt>
<trkpt lat="43.0508507" lon="-6.1482499">
<ele>1453.38</ele>
<time>2023-09-08T12:55:34.000Z</time>
</trkpt>
<trkpt lat="43.0509387" lon="-6.1484810">
<ele>1454.14</ele>
<time>2023-09-08T12:55:52.000Z</time>
</trkpt>
<trkpt lat="43.0510534" lon="-6.1486724">
<ele>1452.38</ele>
<time>2023-09-08T12:56:08.000Z</time>
</trkpt>
<trkpt lat="43.0511316" lon="-6.1489069">
<ele>1451.41</ele>
<time>2023-09-08T12:56:35.000Z</time>
</trkpt>
<trkpt lat="43.0512613" lon="-6.1490875">
<ele>1448.68</ele>
<time>2023-09-08T12:56:54.000Z</time>
</trkpt>
<trkpt lat="43.0514246" lon="-6.1492145">
<ele>1447.38</ele>
<time>2023-09-08T12:57:11.000Z</time>
</trkpt>
<trkpt lat="43.0515624" lon="-6.1493781">
<ele>1448.38</ele>
<time>2023-09-08T12:57:29.000Z</time>
</trkpt>
<trkpt lat="43.0516868" lon="-6.1495688">
<ele>1447.38</ele>
<time>2023-09-08T12:57:45.000Z</time>
</trkpt>
<trkpt lat="43.0518304" lon="-6.1497384">
<ele>1445.38</ele>
<time>2023-09-08T12:58:05.000Z</time>
</trkpt>
<trkpt lat="43.0519730" lon="-6.1498982">
<ele>1443.38</ele>
<time>2023-09-08T12:58:29.000Z</time>
</trkpt>
<trkpt lat="43.0520831" lon="-6.1500987">
<ele>1441.37</ele>
<time>2023-09-08T12:59:23.000Z</time>
</trkpt>
<trkpt lat="43.0521944" lon="-6.1503075">
<ele>1438.38</ele>
<time>2023-09-08T12:59:43.000Z</time>
</trkpt>
<trkpt lat="43.0523082" lon="-6.1505110">
<ele>1437.38</ele>
<time>2023-09-08T13:00:00.000Z</time>
</trkpt>
<trkpt lat="43.0523754" lon="-6.1507533">
<ele>1434.40</ele>
<time>2023-09-08T13:00:17.000Z</time>
</trkpt>
<trkpt lat="43.0524632" lon="-6.1509777">
<ele>1431.37</ele>
<time>2023-09-08T13:00:45.000Z</time>
</trkpt>
<trkpt lat="43.0525827" lon="-6.1511790">
<ele>1430.38</ele>
<time>2023-09-08T13:01:04.000Z</time>
</trkpt>
<trkpt lat="43.0526794" lon="-6.1513928">
<ele>1426.37</ele>
<time>2023-09-08T13:01:43.000Z</time>
</trkpt>
<trkpt lat="43.0527992" lon="-6.1515905">
<ele>1422.39</ele>
<time>2023-09-08T13:02:09.000Z</time>
</trkpt>
<trkpt lat="43.0529139" lon="-6.1517933">
<ele>1419.37</ele>
<time>2023-09-08T13:02:45.000Z</time>
</trkpt>
<trkpt lat="43.0529662" lon="-6.1520398">
<ele>1416.46</ele>
<time>2023-09-08T13:03:03.000Z</time>
</trkpt>
<trkpt lat="43.0529757" lon="-6.1522999">
<ele>1412.68</ele>
<time>2023-09-08T13:03:28.000Z</time>
</trkpt>
<trkpt lat="43.0529117" lon="-6.1525333">
<ele>1410.67</ele>
<time>2023-09-08T13:03:46.000Z</time>
</trkpt>
<trkpt lat="43.0529642" lon="-6.1527742">
<ele>1408.38</ele>
<time>2023-09-08T13:04:06.000Z</time>
</trkpt>
<trkpt lat="43.0530873" lon="-6.1529632">
<ele>1402.37</ele>
<time>2023-09-08T13:04:38.000Z</time>
</trkpt>
<trkpt lat="43.0532050" lon="-6.1531611">
<ele>1399.38</ele>
<time>2023-09-08T13:05:00.000Z</time>
</trkpt>
<trkpt lat="43.0533143" lon="-6.1533614">
<ele>1393.68</ele>
<time>2023-09-08T13:05:21.000Z</time>
</trkpt>
<trkpt lat="43.0534348" lon="-6.1535623">
<ele>1390.40</ele>
<time>2023-09-08T13:05:43.000Z</time>
</trkpt>
<trkpt lat="43.0535604" lon="-6.1537551">
<ele>1387.46</ele>
<time>2023-09-08T13:06:02.000Z</time>
</trkpt>
<trkpt lat="43.0537318" lon="-6.1538692">
<ele>1385.37</ele>
<time>2023-09-08T13:06:33.000Z</time>
</trkpt>
<trkpt lat="43.0539126" lon="-6.1539168">
<ele>1383.39</ele>
<time>2023-09-08T13:06:50.000Z</time>
</trkpt>
<trkpt lat="43.0540453" lon="-6.1540858">
<ele>1381.37</ele>
<time>2023-09-08T13:07:22.000Z</time>
</trkpt>
<trkpt lat="43.0542003" lon="-6.1542246">
<ele>1381.37</ele>
<time>2023-09-08T13:07:40.000Z</time>
</trkpt>
<trkpt lat="43.0543457" lon="-6.1543811">
<ele>1382.36</ele>
<time>2023-09-08T13:07:58.000Z</time>
</trkpt>
<trkpt lat="43.0544631" lon="-6.1545832">
<ele>1382.36</ele>
<time>2023-09-08T13:08:16.000Z</time>
</trkpt>
<trkpt lat="43.0545866" lon="-6.1547642">
<ele>1382.36</ele>
<time>2023-09-08T13:08:37.000Z</time>
</trkpt>
<trkpt lat="43.0546938" lon="-6.1549652">
<ele>1379.39</ele>
<time>2023-09-08T13:08:58.000Z</time>
</trkpt>
<trkpt lat="43.0547935" lon="-6.1551889">
<ele>1377.36</ele>
<time>2023-09-08T13:09:15.000Z</time>
</trkpt>
<trkpt lat="43.0549421" lon="-6.1553426">
<ele>1374.66</ele>
<time>2023-09-08T13:09:33.000Z</time>
</trkpt>
<trkpt lat="43.0550978" lon="-6.1554695">
<ele>1374.36</ele>
<time>2023-09-08T13:09:49.000Z</time>
</trkpt>
<trkpt lat="43.0552574" lon="-6.1556057">
<ele>1375.13</ele>
<time>2023-09-08T13:10:07.000Z</time>
</trkpt>
<trkpt lat="43.0554055" lon="-6.1557493">
<ele>1375.36</ele>
<time>2023-09-08T13:10:35.000Z</time>
</trkpt>
<trkpt lat="43.0555478" lon="-6.1559023">
<ele>1375.36</ele>
<time>2023-09-08T13:10:51.000Z</time>
</trkpt>
<trkpt lat="43.0556594" lon="-6.1561076">
<ele>1376.35</ele>
<time>2023-09-08T13:11:08.000Z</time>
</trkpt>
<trkpt lat="43.0557566" lon="-6.1563174">
<ele>1374.45</ele>
<time>2023-09-08T13:11:25.000Z</time>
</trkpt>
<trkpt lat="43.0558721" lon="-6.1565205">
<ele>1374.36</ele>
<time>2023-09-08T13:11:48.000Z</time>
</trkpt>
<trkpt lat="43.0559850" lon="-6.1567281">
<ele>1375.36</ele>
<time>2023-09-08T13:12:04.000Z</time>
</trkpt>
<trkpt lat="43.0560854" lon="-6.1569427">
<ele>1374.36</ele>
<time>2023-09-08T13:12:46.000Z</time>
</trkpt>
<trkpt lat="43.0562007" lon="-6.1571342">
<ele>1375.06</ele>
<time>2023-09-08T13:13:02.000Z</time>
</trkpt>
<trkpt lat="43.0563271" lon="-6.1573245">
<ele>1374.36</ele>
<time>2023-09-08T13:13:17.000Z</time>
</trkpt>
<trkpt lat="43.0564285" lon="-6.1575302">
<ele>1373.45</ele>
<time>2023-09-08T13:13:33.000Z</time>
</trkpt>
<trkpt lat="43.0565646" lon="-6.1576997">
<ele>1374.35</ele>
<time>2023-09-08T13:13:59.000Z</time>
</trkpt>
<trkpt lat="43.0566666" lon="-6.1579042">
<ele>1375.05</ele>
<time>2023-09-08T13:14:15.000Z</time>
</trkpt>
<trkpt lat="43.0567725" lon="-6.1581128">
<ele>1375.35</ele>
<time>2023-09-08T13:14:31.000Z</time>
</trkpt>
<trkpt lat="43.0568860" lon="-6.1583154">
<ele>1374.35</ele>
<time>2023-09-08T13:14:47.000Z</time>
</trkpt>
<trkpt lat="43.0570026" lon="-6.1585197">
<ele>1373.35</ele>
<time>2023-09-08T13:15:04.000Z</time>
</trkpt>
<trkpt lat="43.0571116" lon="-6.1587301">
<ele>1372.65</ele>
<time>2023-09-08T13:15:20.000Z</time>
</trkpt>
<trkpt lat="43.0572516" lon="-6.1589078">
<ele>1372.35</ele>
<time>2023-09-08T13:15:37.000Z</time>
</trkpt>
<trkpt lat="43.0573160" lon="-6.1591411">
<ele>1372.35</ele>
<time>2023-09-08T13:15:53.000Z</time>
</trkpt>
<trkpt lat="43.0573386" lon="-6.1593941">
<ele>1371.65</ele>
<time>2023-09-08T13:16:09.000Z</time>
</trkpt>
<trkpt lat="43.0573864" lon="-6.1596445">
<ele>1371.35</ele>
<time>2023-09-08T13:16:25.000Z</time>
</trkpt>
<trkpt lat="43.0574416" lon="-6.1598898">
<ele>1372.34</ele>
<time>2023-09-08T13:16:48.000Z</time>
</trkpt>
<trkpt lat="43.0575443" lon="-6.1601042">
<ele>1371.37</ele>
<time>2023-09-08T13:17:04.000Z</time>
</trkpt>
<trkpt lat="43.0576584" lon="-6.1603056">
<ele>1371.34</ele>
<time>2023-09-08T13:17:19.000Z</time>
</trkpt>
<trkpt lat="43.0577547" lon="-6.1605159">
<ele>1370.56</ele>
<time>2023-09-08T13:17:35.000Z</time>
</trkpt>
<trkpt lat="43.0578736" lon="-6.1607055">
<ele>1369.36</ele>
<time>2023-09-08T13:18:24.000Z</time>
</trkpt>
<trkpt lat="43.0579797" lon="-6.1609062">
<ele>1366.44</ele>
<time>2023-09-08T13:18:52.000Z</time>
</trkpt>
<trkpt lat="43.0581155" lon="-6.1610717">
<ele>1364.36</ele>
<time>2023-09-08T13:19:07.000Z</time>
</trkpt>
<trkpt lat="43.0582099" lon="-6.1612825">
<ele>1362.35</ele>
<time>2023-09-08T13:19:23.000Z</time>
</trkpt>
<trkpt lat="43.0583438" lon="-6.1614628">
<ele>1363.34</ele>
<time>2023-09-08T13:19:39.000Z</time>
</trkpt>
<trkpt lat="43.0584327" lon="-6.1616826">
<ele>1360.35</ele>
<time>2023-09-08T13:19:59.000Z</time>
</trkpt>
<trkpt lat="43.0585696" lon="-6.1618508">
<ele>1357.35</ele>
<time>2023-09-08T13:20:16.000Z</time>
</trkpt>
<trkpt lat="43.0586863" lon="-6.1620507">
<ele>1353.34</ele>
<time>2023-09-08T13:20:50.000Z</time>
</trkpt>
<trkpt lat="43.0587626" lon="-6.1622841">
<ele>1350.44</ele>
<time>2023-09-08T13:21:10.000Z</time>
</trkpt>
<trkpt lat="43.0588242" lon="-6.1625252">
<ele>1346.37</ele>
<time>2023-09-08T13:21:28.000Z</time>
</trkpt>
<trkpt lat="43.0588651" lon="-6.1627663">
<ele>1343.35</ele>
<time>2023-09-08T13:21:57.000Z</time>
</trkpt>
<trkpt lat="43.0590105" lon="-6.1629243">
<ele>1342.34</ele>
<time>2023-09-08T13:22:18.000Z</time>
</trkpt>
<trkpt lat="43.0591635" lon="-6.1630744">
<ele>1342.34</ele>
<time>2023-09-08T13:22:37.000Z</time>
</trkpt>
<trkpt lat="43.0592857" lon="-6.1632680">
<ele>1340.34</ele>
<time>2023-09-08T13:23:06.000Z</time>
</trkpt>
<trkpt lat="43.0594100" lon="-6.1634651">
<ele>1337.62</ele>
<time>2023-09-08T13:23:26.000Z</time>
</trkpt>
<trkpt lat="43.0595945" lon="-6.1634933">
<ele>1336.25</ele>
<time>2023-09-08T13:23:46.000Z</time>
</trkpt>
<trkpt lat="43.0597349" lon="-6.1633385">
<ele>1331.64</ele>
<time>2023-09-08T13:24:06.000Z</time>
</trkpt>
<trkpt lat="43.0598062" lon="-6.1635712">
<ele>1327.43</ele>
<time>2023-09-08T13:24:37.000Z</time>
</trkpt>
<trkpt lat="43.0597970" lon="-6.1638187">
<ele>1322.67</ele>
<time>2023-09-08T13:25:01.000Z</time>
</trkpt>
<trkpt lat="43.0599109" lon="-6.1640222">
<ele>1321.26</ele>
<time>2023-09-08T13:25:18.000Z</time>
</trkpt>
<trkpt lat="43.0600026" lon="-6.1642378">
<ele>1318.34</ele>
<time>2023-09-08T13:25:37.000Z</time>
</trkpt>
<trkpt lat="43.0601145" lon="-6.1644453">
<ele>1319.28</ele>
<time>2023-09-08T13:25:53.000Z</time>
</trkpt>
<trkpt lat="43.0602437" lon="-6.1646275">
<ele>1317.34</ele>
<time>2023-09-08T13:26:13.000Z</time>
</trkpt>
<trkpt lat="43.0603664" lon="-6.1648246">
<ele>1316.34</ele>
<time>2023-09-08T13:26:43.000Z</time>
</trkpt>
<trkpt lat="43.0604271" lon="-6.1650681">
<ele>1316.34</ele>
<time>2023-09-08T13:27:01.000Z</time>
</trkpt>
<trkpt lat="43.0604776" lon="-6.1653164">
<ele>1314.34</ele>
<time>2023-09-08T13:27:20.000Z</time>
</trkpt>
<trkpt lat="43.0605420" lon="-6.1655476">
<ele>1313.64</ele>
<time>2023-09-08T13:27:38.000Z</time>
</trkpt>
<trkpt lat="43.0606359" lon="-6.1657706">
<ele>1313.34</ele>
<time>2023-09-08T13:27:55.000Z</time>
</trkpt>
<trkpt lat="43.0607689" lon="-6.1659473">
<ele>1310.34</ele>
<time>2023-09-08T13:28:18.000Z</time>
</trkpt>
<trkpt lat="43.0609352" lon="-6.1660801">
<ele>1313.03</ele>
<time>2023-09-08T13:28:38.000Z</time>
</trkpt>
<trkpt lat="43.0610141" lon="-6.1663027">
<ele>1313.24</ele>
<time>2023-09-08T13:28:55.000Z</time>
</trkpt>
<trkpt lat="43.0611221" lon="-6.1665067">
<ele>1314.33</ele>
<time>2023-09-08T13:29:24.000Z</time>
</trkpt>
<trkpt lat="43.0612241" lon="-6.1667173">
<ele>1312.42</ele>
<time>2023-09-08T13:29:43.000Z</time>
</trkpt>
<trkpt lat="43.0612955" lon="-6.1669547">
<ele>1311.33</ele>
<time>2023-09-08T13:30:01.000Z</time>
</trkpt>
<trkpt lat="43.0613085" lon="-6.1672034">
<ele>1309.33</ele>
<time>2023-09-08T13:30:19.000Z</time>
</trkpt>
<trkpt lat="43.0613160" lon="-6.1674600">
<ele>1309.63</ele>
<time>2023-09-08T13:30:41.000Z</time>
</trkpt>
<trkpt lat="43.0613810" lon="-6.1677018">
<ele>1309.63</ele>
<time>2023-09-08T13:31:03.000Z</time>
</trkpt>
<trkpt lat="43.0614520" lon="-6.1679328">
<ele>1308.36</ele>
<time>2023-09-08T13:31:27.000Z</time>
</trkpt>
<trkpt lat="43.0615635" lon="-6.1681352">
<ele>1309.24</ele>
<time>2023-09-08T13:31:44.000Z</time>
</trkpt>
<trkpt lat="43.0616204" lon="-6.1683745">
<ele>1308.63</ele>
<time>2023-09-08T13:32:11.000Z</time>
</trkpt>
<trkpt lat="43.0617947" lon="-6.1684514">
<ele>1309.33</ele>
<time>2023-09-08T13:34:22.000Z</time>
</trkpt>
<trkpt lat="43.0618431" lon="-6.1686917">
<ele>1310.33</ele>
<time>2023-09-08T13:34:48.000Z</time>
</trkpt>
<trkpt lat="43.0619094" lon="-6.1689259">
<ele>1310.32</ele>
<time>2023-09-08T13:35:21.000Z</time>
</trkpt>
<trkpt lat="43.0620053" lon="-6.1691472">
<ele>1312.24</ele>
<time>2023-09-08T13:35:38.000Z</time>
</trkpt>
<trkpt lat="43.0621358" lon="-6.1693248">
<ele>1312.33</ele>
<time>2023-09-08T13:35:55.000Z</time>
</trkpt>
<trkpt lat="43.0622830" lon="-6.1694724">
<ele>1311.33</ele>
<time>2023-09-08T13:36:12.000Z</time>
</trkpt>
<trkpt lat="43.0623772" lon="-6.1696862">
<ele>1311.33</ele>
<time>2023-09-08T13:36:29.000Z</time>
</trkpt>
<trkpt lat="43.0624513" lon="-6.1699176">
<ele>1311.12</ele>
<time>2023-09-08T13:36:45.000Z</time>
</trkpt>
<trkpt lat="43.0625542" lon="-6.1701197">
<ele>1314.39</ele>
<time>2023-09-08T13:37:06.000Z</time>
</trkpt>
<trkpt lat="43.0627396" lon="-6.1701446">
<ele>1313.33</ele>
<time>2023-09-08T13:37:26.000Z</time>
</trkpt>
<trkpt lat="43.0629250" lon="-6.1700939">
<ele>1311.33</ele>
<time>2023-09-08T13:37:43.000Z</time>
</trkpt>
<trkpt lat="43.0630912" lon="-6.1702144">
<ele>1311.32</ele>
<time>2023-09-08T13:37:59.000Z</time>
</trkpt>
<trkpt lat="43.0632010" lon="-6.1704186">
<ele>1311.32</ele>
<time>2023-09-08T13:38:15.000Z</time>
</trkpt>
<trkpt lat="43.0633091" lon="-6.1706306">
<ele>1309.32</ele>
<time>2023-09-08T13:38:47.000Z</time>
</trkpt>
<trkpt lat="43.0634260" lon="-6.1708258">
<ele>1308.32</ele>
<time>2023-09-08T13:40:06.000Z</time>
</trkpt>
<trkpt lat="43.0635003" lon="-6.1710569">
<ele>1306.32</ele>
<time>2023-09-08T13:40:34.000Z</time>
</trkpt>
<trkpt lat="43.0635305" lon="-6.1713022">
<ele>1304.32</ele>
<time>2023-09-08T13:40:52.000Z</time>
</trkpt>
<trkpt lat="43.0635777" lon="-6.1715476">
<ele>1304.32</ele>
<time>2023-09-08T13:41:08.000Z</time>
</trkpt>
<trkpt lat="43.0636220" lon="-6.1717868">
<ele>1305.32</ele>
<time>2023-09-08T13:41:29.000Z</time>
</trkpt>
<trkpt lat="43.0637131" lon="-6.1720096">
<ele>1306.29</ele>
<time>2023-09-08T13:41:47.000Z</time>
</trkpt>
<trkpt lat="43.0638609" lon="-6.1721653">
<ele>1304.41</ele>
<time>2023-09-08T13:42:25.000Z</time>
</trkpt>
<trkpt lat="43.0639903" lon="-6.1723419">
<ele>1304.32</ele>
<time>2023-09-08T13:42:44.000Z</time>
</trkpt>
<trkpt lat="43.0638806" lon="-6.1725392">
<ele>1303.32</ele>
<time>2023-09-08T13:43:02.000Z</time>
</trkpt>
<trkpt lat="43.0638035" lon="-6.1727653">
<ele>1303.32</ele>
<time>2023-09-08T13:43:19.000Z</time>
</trkpt>
<trkpt lat="43.0638158" lon="-6.1730286">
<ele>1304.23</ele>
<time>2023-09-08T13:43:37.000Z</time>
</trkpt>
<trkpt lat="43.0638446" lon="-6.1732859">
<ele>1302.32</ele>
<time>2023-09-08T13:43:53.000Z</time>
</trkpt>
<trkpt lat="43.0638887" lon="-6.1735380">
<ele>1302.32</ele>
<time>2023-09-08T13:44:10.000Z</time>
</trkpt>
<trkpt lat="43.0639011" lon="-6.1737839">
<ele>1302.09</ele>
<time>2023-09-08T13:44:26.000Z</time>
</trkpt>
<trkpt lat="43.0639563" lon="-6.1740223">
<ele>1300.34</ele>
<time>2023-09-08T13:44:46.000Z</time>
</trkpt>
<trkpt lat="43.0640714" lon="-6.1742173">
<ele>1300.34</ele>
<time>2023-09-08T13:45:12.000Z</time>
</trkpt>
<trkpt lat="43.0642258" lon="-6.1743541">
<ele>1297.32</ele>
<time>2023-09-08T13:46:32.000Z</time>
</trkpt>
<trkpt lat="43.0643988" lon="-6.1744224">
<ele>1295.38</ele>
<time>2023-09-08T13:46:49.000Z</time>
</trkpt>
<trkpt lat="43.0645233" lon="-6.1746001">
<ele>1294.32</ele>
<time>2023-09-08T13:47:17.000Z</time>
</trkpt>
<trkpt lat="43.0646480" lon="-6.1747932">
<ele>1295.23</ele>
<time>2023-09-08T13:47:35.000Z</time>
</trkpt>
<trkpt lat="43.0647671" lon="-6.1749829">
<ele>1295.25</ele>
<time>2023-09-08T13:47:52.000Z</time>
</trkpt>
<trkpt lat="43.0648820" lon="-6.1751765">
<ele>1294.31</ele>
<time>2023-09-08T13:48:09.000Z</time>
</trkpt>
<trkpt lat="43.0649570" lon="-6.1754093">
<ele>1293.32</ele>
<time>2023-09-08T13:49:03.000Z</time>
</trkpt>
<trkpt lat="43.0650227" lon="-6.1756444">
<ele>1291.34</ele>
<time>2023-09-08T13:49:33.000Z</time>
</trkpt>
<trkpt lat="43.0650345" lon="-6.1758983">
<ele>1289.32</ele>
<time>2023-09-08T13:49:51.000Z</time>
</trkpt>
<trkpt lat="43.0650332" lon="-6.1761461">
<ele>1287.32</ele>
<time>2023-09-08T13:50:10.000Z</time>
</trkpt>
<trkpt lat="43.0650666" lon="-6.1763995">
<ele>1286.31</ele>
<time>2023-09-08T13:50:29.000Z</time>
</trkpt>
<trkpt lat="43.0651353" lon="-6.1766322">
<ele>1284.04</ele>
<time>2023-09-08T13:50:46.000Z</time>
</trkpt>
<trkpt lat="43.0652051" lon="-6.1768694">
<ele>1283.31</ele>
<time>2023-09-08T13:51:11.000Z</time>
</trkpt>
<trkpt lat="43.0652177" lon="-6.1771300">
<ele>1283.31</ele>
<time>2023-09-08T13:51:32.000Z</time>
</trkpt>
<trkpt lat="43.0652600" lon="-6.1773701">
<ele>1283.39</ele>
<time>2023-09-08T13:51:50.000Z</time>
</trkpt>
<trkpt lat="43.0652951" lon="-6.1776273">
<ele>1283.31</ele>
<time>2023-09-08T13:52:08.000Z</time>
</trkpt>
<trkpt lat="43.0653522" lon="-6.1778748">
<ele>1283.28</ele>
<time>2023-09-08T13:52:26.000Z</time>
</trkpt>
<trkpt lat="43.0654816" lon="-6.1780562">
<ele>1286.01</ele>
<time>2023-09-08T13:52:45.000Z</time>
</trkpt>
<trkpt lat="43.0655882" lon="-6.1782676">
<ele>1284.34</ele>
<time>2023-09-08T13:53:02.000Z</time>
</trkpt>
<trkpt lat="43.0656974" lon="-6.1784728">
<ele>1282.31</ele>
<time>2023-09-08T13:53:19.000Z</time>
</trkpt>
<trkpt lat="43.0657901" lon="-6.1786859">
<ele>1281.40</ele>
<time>2023-09-08T13:53:37.000Z</time>
</trkpt>
<trkpt lat="43.0659067" lon="-6.1788845">
<ele>1279.01</ele>
<time>2023-09-08T13:53:56.000Z</time>
</trkpt>
<trkpt lat="43.0660229" lon="-6.1790770">
<ele>1280.01</ele>
<time>2023-09-08T13:54:15.000Z</time>
</trkpt>
<trkpt lat="43.0661743" lon="-6.1792290">
<ele>1279.21</ele>
<time>2023-09-08T13:54:37.000Z</time>
</trkpt>
<trkpt lat="43.0662632" lon="-6.1794580">
<ele>1280.01</ele>
<time>2023-09-08T13:55:04.000Z</time>
</trkpt>
<trkpt lat="43.0662998" lon="-6.1797116">
<ele>1280.03</ele>
<time>2023-09-08T13:55:23.000Z</time>
</trkpt>
<trkpt lat="43.0663542" lon="-6.1799537">
<ele>1281.22</ele>
<time>2023-09-08T13:55:41.000Z</time>
</trkpt>
<trkpt lat="43.0664401" lon="-6.1801792">
<ele>1280.60</ele>
<time>2023-09-08T13:56:02.000Z</time>
</trkpt>
<trkpt lat="43.0665618" lon="-6.1803740">
<ele>1277.61</ele>
<time>2023-09-08T13:56:20.000Z</time>
</trkpt>
<trkpt lat="43.0666784" lon="-6.1805727">
<ele>1278.09</ele>
<time>2023-09-08T13:56:40.000Z</time>
</trkpt>
<trkpt lat="43.0667862" lon="-6.1807885">
<ele>1276.58</ele>
<time>2023-09-08T13:57:00.000Z</time>
</trkpt>
<trkpt lat="43.0668354" lon="-6.1810326">
<ele>1275.39</ele>
<time>2023-09-08T13:57:21.000Z</time>
</trkpt>
<trkpt lat="43.0668483" lon="-6.1812833">
<ele>1280.30</ele>
<time>2023-09-08T13:58:18.000Z</time>
</trkpt>
<trkpt lat="43.0668665" lon="-6.1815340">
<ele>1280.30</ele>
<time>2023-09-08T13:58:37.000Z</time>
</trkpt>
<trkpt lat="43.0669042" lon="-6.1817808">
<ele>1280.32</ele>
<time>2023-09-08T13:58:55.000Z</time>
</trkpt>
<trkpt lat="43.0670102" lon="-6.1819900">
<ele>1277.39</ele>
<time>2023-09-08T13:59:12.000Z</time>
</trkpt>
<trkpt lat="43.0671609" lon="-6.1821399">
<ele>1276.31</ele>
<time>2023-09-08T13:59:29.000Z</time>
</trkpt>
<trkpt lat="43.0672574" lon="-6.1823610">
<ele>1277.30</ele>
<time>2023-09-08T13:59:47.000Z</time>
</trkpt>
<trkpt lat="43.0673321" lon="-6.1825941">
<ele>1279.30</ele>
<time>2023-09-08T14:00:11.000Z</time>
</trkpt>
<trkpt lat="43.0674096" lon="-6.1828281">
<ele>1277.39</ele>
<time>2023-09-08T14:00:29.000Z</time>
</trkpt>
<trkpt lat="43.0674101" lon="-6.1830753">
<ele>1274.39</ele>
<time>2023-09-08T14:00:58.000Z</time>
</trkpt>
<trkpt lat="43.0674420" lon="-6.1833283">
<ele>1276.21</ele>
<time>2023-09-08T14:01:16.000Z</time>
</trkpt>
<trkpt lat="43.0675104" lon="-6.1835657">
<ele>1279.38</ele>
<time>2023-09-08T14:02:08.000Z</time>
</trkpt>
<trkpt lat="43.0675951" lon="-6.1837870">
<ele>1279.31</ele>
<time>2023-09-08T14:02:26.000Z</time>
</trkpt>
<trkpt lat="43.0676082" lon="-6.1840448">
<ele>1281.00</ele>
<time>2023-09-08T14:02:45.000Z</time>
</trkpt>
<trkpt lat="43.0676177" lon="-6.1843020">
<ele>1279.32</ele>
<time>2023-09-08T14:03:03.000Z</time>
</trkpt>
<trkpt lat="43.0676992" lon="-6.1845250">
<ele>1280.30</ele>
<time>2023-09-08T14:03:20.000Z</time>
</trkpt>
<trkpt lat="43.0677977" lon="-6.1847357">
<ele>1281.57</ele>
<time>2023-09-08T14:03:38.000Z</time>
</trkpt>
<trkpt lat="43.0678644" lon="-6.1849788">
<ele>1282.30</ele>
<time>2023-09-08T14:03:54.000Z</time>
</trkpt>
<trkpt lat="43.0678790" lon="-6.1852269">
<ele>1283.02</ele>
<time>2023-09-08T14:04:11.000Z</time>
</trkpt>
<trkpt lat="43.0679177" lon="-6.1854799">
<ele>1282.30</ele>
<time>2023-09-08T14:05:09.000Z</time>
</trkpt>
<trkpt lat="43.0679409" lon="-6.1857341">
<ele>1281.38</ele>
<time>2023-09-08T14:05:37.000Z</time>
</trkpt>
<trkpt lat="43.0680217" lon="-6.1859608">
<ele>1280.60</ele>
<time>2023-09-08T14:05:53.000Z</time>
</trkpt>
<trkpt lat="43.0680821" lon="-6.1861988">
<ele>1277.30</ele>
<time>2023-09-08T14:06:17.000Z</time>
</trkpt>
<trkpt lat="43.0680434" lon="-6.1864419">
<ele>1274.29</ele>
<time>2023-09-08T14:06:46.000Z</time>
</trkpt>
<trkpt lat="43.0680012" lon="-6.1866897">
<ele>1271.39</ele>
<time>2023-09-08T14:07:07.000Z</time>
</trkpt>
<trkpt lat="43.0680003" lon="-6.1869484">
<ele>1270.30</ele>
<time>2023-09-08T14:07:29.000Z</time>
</trkpt>
<trkpt lat="43.0680195" lon="-6.1872053">
<ele>1270.30</ele>
<time>2023-09-08T14:07:49.000Z</time>
</trkpt>
<trkpt lat="43.0679443" lon="-6.1874381">
<ele>1265.60</ele>
<time>2023-09-08T14:08:08.000Z</time>
</trkpt>
<trkpt lat="43.0679308" lon="-6.1876922">
<ele>1262.51</ele>
<time>2023-09-08T14:08:27.000Z</time>
</trkpt>
<trkpt lat="43.0679986" lon="-6.1879275">
<ele>1263.99</ele>
<time>2023-09-08T14:09:06.000Z</time>
</trkpt>
<trkpt lat="43.0680378" lon="-6.1881714">
<ele>1264.57</ele>
<time>2023-09-08T14:09:24.000Z</time>
</trkpt>
<trkpt lat="43.0680476" lon="-6.1884183">
<ele>1264.30</ele>
<time>2023-09-08T14:09:54.000Z</time>
</trkpt>
<trkpt lat="43.0680861" lon="-6.1886635">
<ele>1263.60</ele>
<time>2023-09-08T14:10:12.000Z</time>
</trkpt>
<trkpt lat="43.0682107" lon="-6.1888521">
<ele>1263.27</ele>
<time>2023-09-08T14:10:49.000Z</time>
</trkpt>
<trkpt lat="43.0683098" lon="-6.1890609">
<ele>1261.29</ele>
<time>2023-09-08T14:11:09.000Z</time>
</trkpt>
<trkpt lat="43.0684193" lon="-6.1892696">
<ele>1262.07</ele>
<time>2023-09-08T14:11:28.000Z</time>
</trkpt>
<trkpt lat="43.0685467" lon="-6.1894483">
<ele>1259.38</ele>
<time>2023-09-08T14:11:55.000Z</time>
</trkpt>
<trkpt lat="43.0685977" lon="-6.1896845">
<ele>1256.30</ele>
<time>2023-09-08T14:12:23.000Z</time>
</trkpt>
<trkpt lat="43.0686622" lon="-6.1899228">
<ele>1255.29</ele>
<time>2023-09-08T14:12:43.000Z</time>
</trkpt>
<trkpt lat="43.0686966" lon="-6.1901682">
<ele>1254.29</ele>
<time>2023-09-08T14:13:03.000Z</time>
</trkpt>
<trkpt lat="43.0687528" lon="-6.1904102">
<ele>1252.02</ele>
<time>2023-09-08T14:13:29.000Z</time>
</trkpt>
<trkpt lat="43.0688308" lon="-6.1906429">
<ele>1251.99</ele>
<time>2023-09-08T14:13:47.000Z</time>
</trkpt>
<trkpt lat="43.0689741" lon="-6.1908142">
<ele>1252.29</ele>
<time>2023-09-08T14:14:07.000Z</time>
</trkpt>
<trkpt lat="43.0690675" lon="-6.1910258">
<ele>1251.32</ele>
<time>2023-09-08T14:14:25.000Z</time>
</trkpt>
<trkpt lat="43.0691474" lon="-6.1912498">
<ele>1252.29</ele>
<time>2023-09-08T14:14:42.000Z</time>
</trkpt>
<trkpt lat="43.0692170" lon="-6.1914774">
<ele>1251.21</ele>
<time>2023-09-08T14:14:59.000Z</time>
</trkpt>
<trkpt lat="43.0692951" lon="-6.1917007">
<ele>1250.29</ele>
<time>2023-09-08T14:15:15.000Z</time>
</trkpt>
<trkpt lat="43.0693822" lon="-6.1919172">
<ele>1251.26</ele>
<time>2023-09-08T14:15:32.000Z</time>
</trkpt>
<trkpt lat="43.0695013" lon="-6.1921034">
<ele>1248.59</ele>
<time>2023-09-08T14:15:53.000Z</time>
</trkpt>
<trkpt lat="43.0696312" lon="-6.1922751">
<ele>1247.07</ele>
<time>2023-09-08T14:16:10.000Z</time>
</trkpt>
<trkpt lat="43.0697361" lon="-6.1924899">
<ele>1246.29</ele>
<time>2023-09-08T14:16:29.000Z</time>
</trkpt>
<trkpt lat="43.0698652" lon="-6.1926679">
<ele>1245.29</ele>
<time>2023-09-08T14:16:50.000Z</time>
</trkpt>
<trkpt lat="43.0699725" lon="-6.1928736">
<ele>1243.28</ele>
<time>2023-09-08T14:17:09.000Z</time>
</trkpt>
<trkpt lat="43.0700318" lon="-6.1931085">
<ele>1245.28</ele>
<time>2023-09-08T14:17:27.000Z</time>
</trkpt>
<trkpt lat="43.0701110" lon="-6.1933354">
<ele>1243.31</ele>
<time>2023-09-08T14:17:45.000Z</time>
</trkpt>
<trkpt lat="43.0701864" lon="-6.1935597">
<ele>1243.28</ele>
<time>2023-09-08T14:18:03.000Z</time>
</trkpt>
<trkpt lat="43.0702101" lon="-6.1938039">
<ele>1244.28</ele>
<time>2023-09-08T14:18:23.000Z</time>
</trkpt>
<trkpt lat="43.0702692" lon="-6.1940389">
<ele>1243.31</ele>
<time>2023-09-08T14:18:52.000Z</time>
</trkpt>
</trkseg>
</trk>
</gpx>
